<?xml version='1.0' encoding='UTF-8'?><gpx version="1.1" creator="JPX - https://github.com/jenetics/jpx" xmlns="http://www.topografix.com/GPX/1/1"><trk><trkseg><trkpt lat="40.012064074267364" lon="18.1779041946819"><ele>144.0</ele><time>2026-05-03T09:28:30Z</time></trkpt><trkpt lat="40.012127633054604" lon="18.17786945185553"><ele>144.0</ele><time>2026-05-03T09:28:34Z</time></trkpt><trkpt lat="40.0121518651961" lon="18.177786267413076"><ele>144.0</ele><time>2026-05-03T09:28:40Z</time></trkpt><trkpt lat="40.01212194565135" lon="18.177709401309393"><ele>144.0</ele><time>2026-05-03T09:28:42Z</time></trkpt><trkpt lat="40.01208736462365" lon="18.17760125233819"><ele>144.0</ele><time>2026-05-03T09:28:44Z</time></trkpt><trkpt lat="40.01206783231688" lon="18.177509724248996"><ele>144.0</ele><time>2026-05-03T09:28:46Z</time></trkpt><trkpt lat="40.01215069767323" lon="18.177417395877004"><ele>144.0</ele><time>2026-05-03T09:28:49Z</time></trkpt><trkpt lat="40.012241176155186" lon="18.17736307320176"><ele>144.0</ele><time>2026-05-03T09:28:51Z</time></trkpt><trkpt lat="40.012340699267774" lon="18.177311483848317"><ele>144.0</ele><time>2026-05-03T09:28:53Z</time></trkpt><trkpt lat="40.0124030533572" lon="18.177286831558206"><ele>144.0</ele><time>2026-05-03T09:28:54Z</time></trkpt><trkpt lat="40.012486975423606" lon="18.177252062398377"><ele>144.0</ele><time>2026-05-03T09:28:56Z</time></trkpt><trkpt lat="40.0125505457283" lon="18.177298554789086"><ele>144.0</ele><time>2026-05-03T09:29:00Z</time></trkpt><trkpt lat="40.012608890164366" lon="18.177445684882812"><ele>143.83333333333334</ele><time>2026-05-03T09:29:02Z</time></trkpt><trkpt lat="40.01263946327463" lon="18.177534294450997"><ele>143.66666666666666</ele><time>2026-05-03T09:29:03Z</time></trkpt><trkpt lat="40.01266844784732" lon="18.177624294140802"><ele>143.5</ele><time>2026-05-03T09:29:04Z</time></trkpt><trkpt lat="40.012696752088125" lon="18.17771885486908"><ele>143.33333333333331</ele><time>2026-05-03T09:29:05Z</time></trkpt><trkpt lat="40.012724424486784" lon="18.17779748137387"><ele>143.16666666666666</ele><time>2026-05-03T09:29:06Z</time></trkpt><trkpt lat="40.01275326282481" lon="18.177887486751366"><ele>143.0</ele><time>2026-05-03T09:29:07Z</time></trkpt><trkpt lat="40.01279176041173" lon="18.177988719515863"><ele>143.0</ele><time>2026-05-03T09:29:08Z</time></trkpt><trkpt lat="40.01281531783526" lon="18.178104991978675"><ele>143.0</ele><time>2026-05-03T09:29:09Z</time></trkpt><trkpt lat="40.01284155024314" lon="18.178219458586415"><ele>143.0</ele><time>2026-05-03T09:29:10Z</time></trkpt><trkpt lat="40.012875612912325" lon="18.178338719403598"><ele>143.0</ele><time>2026-05-03T09:29:11Z</time></trkpt><trkpt lat="40.01291000335411" lon="18.17846408134162"><ele>143.0</ele><time>2026-05-03T09:29:12Z</time></trkpt><trkpt lat="40.01294922975782" lon="18.178591645916974"><ele>142.8</ele><time>2026-05-03T09:29:13Z</time></trkpt><trkpt lat="40.01298764577991" lon="18.17871933671429"><ele>142.60000000000002</ele><time>2026-05-03T09:29:14Z</time></trkpt><trkpt lat="40.01302656419897" lon="18.178849580943353"><ele>142.39999999999998</ele><time>2026-05-03T09:29:15Z</time></trkpt><trkpt lat="40.01306674570394" lon="18.178980683104843"><ele>142.2</ele><time>2026-05-03T09:29:16Z</time></trkpt><trkpt lat="40.01310223358024" lon="18.179104394964224"><ele>142.0</ele><time>2026-05-03T09:29:17Z</time></trkpt><trkpt lat="40.01314014263352" lon="18.179224719412073"><ele>141.83333333333334</ele><time>2026-05-03T09:29:18.001Z</time></trkpt><trkpt lat="40.013178498549905" lon="18.179339535513133"><ele>141.66666666666669</ele><time>2026-05-03T09:29:19.001Z</time></trkpt><trkpt lat="40.01321210075508" lon="18.179448789192197"><ele>141.5</ele><time>2026-05-03T09:29:20.001Z</time></trkpt><trkpt lat="40.013241275917885" lon="18.17955450685166"><ele>141.33333333333334</ele><time>2026-05-03T09:29:21.001Z</time></trkpt><trkpt lat="40.01327242329341" lon="18.179653016706503"><ele>141.16666666666666</ele><time>2026-05-03T09:29:22.001Z</time></trkpt><trkpt lat="40.01330435868513" lon="18.17974496426758"><ele>141.0</ele><time>2026-05-03T09:29:23.001Z</time></trkpt><trkpt lat="40.01334981915539" lon="18.179894459335348"><ele>141.0</ele><time>2026-05-03T09:29:25.001Z</time></trkpt><trkpt lat="40.013435873876084" lon="18.179954192756668"><ele>141.0</ele><time>2026-05-03T09:29:28.001Z</time></trkpt><trkpt lat="40.013499412198335" lon="18.179928805635026"><ele>141.0</ele><time>2026-05-03T09:29:29.001Z</time></trkpt><trkpt lat="40.01356427674781" lon="18.179868731899308"><ele>141.0</ele><time>2026-05-03T09:29:30.001Z</time></trkpt><trkpt lat="40.01361781060037" lon="18.179803648337224"><ele>141.0</ele><time>2026-05-03T09:29:31.001Z</time></trkpt><trkpt lat="40.01368061549228" lon="18.179755322468676"><ele>141.0</ele><time>2026-05-03T09:29:32.001Z</time></trkpt><trkpt lat="40.01375940330603" lon="18.179711032312998"><ele>140.8</ele><time>2026-05-03T09:29:33.001Z</time></trkpt><trkpt lat="40.01383221704672" lon="18.179652226889917"><ele>140.6</ele><time>2026-05-03T09:29:34.001Z</time></trkpt><trkpt lat="40.01391045889881" lon="18.1795859896919"><ele>140.4</ele><time>2026-05-03T09:29:35.001Z</time></trkpt><trkpt lat="40.01398442748501" lon="18.179519986443267"><ele>140.2</ele><time>2026-05-03T09:29:36.001Z</time></trkpt><trkpt lat="40.01406505725043" lon="18.179459743932323"><ele>140.0</ele><time>2026-05-03T09:29:37.001Z</time></trkpt><trkpt lat="40.01414686804648" lon="18.179396342400597"><ele>139.8</ele><time>2026-05-03T09:29:38.001Z</time></trkpt><trkpt lat="40.01423012165476" lon="18.179326265213426"><ele>139.6</ele><time>2026-05-03T09:29:39.001Z</time></trkpt><trkpt lat="40.014318321447654" lon="18.179263861031124"><ele>139.4</ele><time>2026-05-03T09:29:40.001Z</time></trkpt><trkpt lat="40.014403545983626" lon="18.179199723245443"><ele>139.2</ele><time>2026-05-03T09:29:41.001Z</time></trkpt><trkpt lat="40.01448804504901" lon="18.179122033134124"><ele>139.0</ele><time>2026-05-03T09:29:42.001Z</time></trkpt><trkpt lat="40.01457365875662" lon="18.179047103786864"><ele>138.8</ele><time>2026-05-03T09:29:43.001Z</time></trkpt><trkpt lat="40.01466476545739" lon="18.178982273758578"><ele>138.60000000000002</ele><time>2026-05-03T09:29:44.001Z</time></trkpt><trkpt lat="40.01475735738232" lon="18.178910378384366"><ele>138.4</ele><time>2026-05-03T09:29:45.001Z</time></trkpt><trkpt lat="40.014853193093586" lon="18.178836633765865"><ele>138.20000000000002</ele><time>2026-05-03T09:29:46.001Z</time></trkpt><trkpt lat="40.01495486859722" lon="18.178760397669183"><ele>138.0</ele><time>2026-05-03T09:29:47.001Z</time></trkpt><trkpt lat="40.01505888672546" lon="18.178691344287106"><ele>138.8</ele><time>2026-05-03T09:29:48.001Z</time></trkpt><trkpt lat="40.01515488883516" lon="18.178620042428108"><ele>139.60000000000002</ele><time>2026-05-03T09:29:49.001Z</time></trkpt><trkpt lat="40.01525155054466" lon="18.17854856199196"><ele>140.39999999999998</ele><time>2026-05-03T09:29:50.001Z</time></trkpt><trkpt lat="40.01535023129681" lon="18.178470842231032"><ele>141.2</ele><time>2026-05-03T09:29:51.001Z</time></trkpt><trkpt lat="40.01544636510649" lon="18.178397430155464"><ele>142.0</ele><time>2026-05-03T09:29:52.001Z</time></trkpt><trkpt lat="40.015547956005555" lon="18.178323888742753"><ele>142.0</ele><time>2026-05-03T09:29:53.001Z</time></trkpt><trkpt lat="40.01565120329683" lon="18.1782501599487"><ele>142.0</ele><time>2026-05-03T09:29:54.001Z</time></trkpt><trkpt lat="40.015753847880745" lon="18.178171110958374"><ele>142.0</ele><time>2026-05-03T09:29:55.001Z</time></trkpt><trkpt lat="40.01585732233974" lon="18.178096892856598"><ele>142.0</ele><time>2026-05-03T09:29:56.001Z</time></trkpt><trkpt lat="40.015963637266125" lon="18.178023742112575"><ele>142.25</ele><time>2026-05-03T09:29:57.001Z</time></trkpt><trkpt lat="40.01606712018" lon="18.177948222876815"><ele>142.5</ele><time>2026-05-03T09:29:58.001Z</time></trkpt><trkpt lat="40.01617519182505" lon="18.17787911545304"><ele>142.75</ele><time>2026-05-03T09:29:59.001Z</time></trkpt><trkpt lat="40.01628311067899" lon="18.177807825713792"><ele>143.0</ele><time>2026-05-03T09:30:00.001Z</time></trkpt><trkpt lat="40.01638536211452" lon="18.177723449455154"><ele>143.0</ele><time>2026-05-03T09:30:01.001Z</time></trkpt><trkpt lat="40.01649143282943" lon="18.177643896348407"><ele>143.0</ele><time>2026-05-03T09:30:02.001Z</time></trkpt><trkpt lat="40.01659790459534" lon="18.177558755507373"><ele>143.0</ele><time>2026-05-03T09:30:03.001Z</time></trkpt><trkpt lat="40.016698713935874" lon="18.17748773113075"><ele>143.0</ele><time>2026-05-03T09:30:04.001Z</time></trkpt><trkpt lat="40.016806836262774" lon="18.17741011054324"><ele>144.25</ele><time>2026-05-03T09:30:05.001Z</time></trkpt><trkpt lat="40.0169113562154" lon="18.177330911039547"><ele>145.5</ele><time>2026-05-03T09:30:06.001Z</time></trkpt><trkpt lat="40.01701184016208" lon="18.17725580348974"><ele>146.75</ele><time>2026-05-03T09:30:07.001Z</time></trkpt><trkpt lat="40.0171123368383" lon="18.177189029041003"><ele>148.0</ele><time>2026-05-03T09:30:08.001Z</time></trkpt><trkpt lat="40.017212812851085" lon="18.177116039406037"><ele>148.0</ele><time>2026-05-03T09:30:09.001Z</time></trkpt><trkpt lat="40.01731515031434" lon="18.1770446759314"><ele>148.0</ele><time>2026-05-03T09:30:10.001Z</time></trkpt><trkpt lat="40.017414427107155" lon="18.176968472404344"><ele>148.0</ele><time>2026-05-03T09:30:11.001Z</time></trkpt><trkpt lat="40.017514659885904" lon="18.176885285022973"><ele>148.0</ele><time>2026-05-03T09:30:12.001Z</time></trkpt><trkpt lat="40.01761155178612" lon="18.1768083406292"><ele>147.75</ele><time>2026-05-03T09:30:13.001Z</time></trkpt><trkpt lat="40.01771426069732" lon="18.176738985797215"><ele>147.5</ele><time>2026-05-03T09:30:14.001Z</time></trkpt><trkpt lat="40.01781807146361" lon="18.17667199184602"><ele>147.25</ele><time>2026-05-03T09:30:15.001Z</time></trkpt><trkpt lat="40.01791979735706" lon="18.17658903516404"><ele>147.0</ele><time>2026-05-03T09:30:16.001Z</time></trkpt><trkpt lat="40.01802191412728" lon="18.17650611758245"><ele>147.25</ele><time>2026-05-03T09:30:17.001Z</time></trkpt><trkpt lat="40.01812897351063" lon="18.176434020176533"><ele>147.5</ele><time>2026-05-03T09:30:18.001Z</time></trkpt><trkpt lat="40.018236703832024" lon="18.176349782058107"><ele>147.75</ele><time>2026-05-03T09:30:19.001Z</time></trkpt><trkpt lat="40.018342231471635" lon="18.176264266411984"><ele>148.0</ele><time>2026-05-03T09:30:20.001Z</time></trkpt><trkpt lat="40.01845768430475" lon="18.176182705440322"><ele>148.0</ele><time>2026-05-03T09:30:21.001Z</time></trkpt><trkpt lat="40.01857847400406" lon="18.17610332779666"><ele>148.0</ele><time>2026-05-03T09:30:22.001Z</time></trkpt><trkpt lat="40.01868304290615" lon="18.17602799037244"><ele>148.0</ele><time>2026-05-03T09:30:23.001Z</time></trkpt><trkpt lat="40.018772778855144" lon="18.17596424406925"><ele>148.0</ele><time>2026-05-03T09:30:24.001Z</time></trkpt><trkpt lat="40.01883859577642" lon="18.175909869187592"><ele>148.0</ele><time>2026-05-03T09:30:25.001Z</time></trkpt><trkpt lat="40.01894951095061" lon="18.17581430960257"><ele>148.0</ele><time>2026-05-03T09:30:27.001Z</time></trkpt><trkpt lat="40.019030229519984" lon="18.175756390610612"><ele>148.0</ele><time>2026-05-03T09:30:28.001Z</time></trkpt><trkpt lat="40.019134657093566" lon="18.175691527938035"><ele>148.0</ele><time>2026-05-03T09:30:29.001Z</time></trkpt><trkpt lat="40.01923877243142" lon="18.175618699488574"><ele>148.0</ele><time>2026-05-03T09:30:30.001Z</time></trkpt><trkpt lat="40.019343888475774" lon="18.175528983133894"><ele>148.0</ele><time>2026-05-03T09:30:31.001Z</time></trkpt><trkpt lat="40.01946135183575" lon="18.17543426959702"><ele>148.0</ele><time>2026-05-03T09:30:32.001Z</time></trkpt><trkpt lat="40.01958909456766" lon="18.17533397072204"><ele>148.0</ele><time>2026-05-03T09:30:33.001Z</time></trkpt><trkpt lat="40.01970459668215" lon="18.175236534729518"><ele>148.0</ele><time>2026-05-03T09:30:34.001Z</time></trkpt><trkpt lat="40.019814374387316" lon="18.175139360788215"><ele>148.0</ele><time>2026-05-03T09:30:35.001Z</time></trkpt><trkpt lat="40.01992754200725" lon="18.175034468013514"><ele>148.0</ele><time>2026-05-03T09:30:36.001Z</time></trkpt><trkpt lat="40.02003752621836" lon="18.174933194949414"><ele>148.0</ele><time>2026-05-03T09:30:37.001Z</time></trkpt><trkpt lat="40.02014999375133" lon="18.174838187355185"><ele>148.0</ele><time>2026-05-03T09:30:38.001Z</time></trkpt><trkpt lat="40.02025991803825" lon="18.174730272628494"><ele>148.5</ele><time>2026-05-03T09:30:39.001Z</time></trkpt><trkpt lat="40.020364401104736" lon="18.174617953005267"><ele>149.0</ele><time>2026-05-03T09:30:40.001Z</time></trkpt><trkpt lat="40.02046922165124" lon="18.174502345465367"><ele>149.5</ele><time>2026-05-03T09:30:41.001Z</time></trkpt><trkpt lat="40.02057404709818" lon="18.17438787885416"><ele>150.0</ele><time>2026-05-03T09:30:42.001Z</time></trkpt><trkpt lat="40.02067732517746" lon="18.17427920717237"><ele>150.0</ele><time>2026-05-03T09:30:43.001Z</time></trkpt><trkpt lat="40.02078226805829" lon="18.17417034528192"><ele>150.0</ele><time>2026-05-03T09:30:44.001Z</time></trkpt><trkpt lat="40.02088196352131" lon="18.17405807925282"><ele>150.0</ele><time>2026-05-03T09:30:45.001Z</time></trkpt><trkpt lat="40.02098552054431" lon="18.17393966338734"><ele>150.0</ele><time>2026-05-03T09:30:46.001Z</time></trkpt><trkpt lat="40.02108813179856" lon="18.173818250090847"><ele>150.75</ele><time>2026-05-03T09:30:47.001Z</time></trkpt><trkpt lat="40.02119282870989" lon="18.173704452067888"><ele>151.5</ele><time>2026-05-03T09:30:48.001Z</time></trkpt><trkpt lat="40.02129795113465" lon="18.173588629240594"><ele>152.25</ele><time>2026-05-03T09:30:49.001Z</time></trkpt><trkpt lat="40.02140049046824" lon="18.173469456023405"><ele>153.0</ele><time>2026-05-03T09:30:50.001Z</time></trkpt><trkpt lat="40.021502039190956" lon="18.173352743321797"><ele>153.0</ele><time>2026-05-03T09:30:51.001Z</time></trkpt><trkpt lat="40.02160533867711" lon="18.173235689438016"><ele>153.0</ele><time>2026-05-03T09:30:52.001Z</time></trkpt><trkpt lat="40.0217090934121" lon="18.173117965148574"><ele>153.0</ele><time>2026-05-03T09:30:53.001Z</time></trkpt><trkpt lat="40.02181113972149" lon="18.173001615522505"><ele>153.0</ele><time>2026-05-03T09:30:54.001Z</time></trkpt><trkpt lat="40.021916189184076" lon="18.172884376367"><ele>152.5</ele><time>2026-05-03T09:30:55.001Z</time></trkpt><trkpt lat="40.0220161001555" lon="18.17276944475631"><ele>152.0</ele><time>2026-05-03T09:30:56.001Z</time></trkpt><trkpt lat="40.022116425244" lon="18.172645897083083"><ele>151.5</ele><time>2026-05-03T09:30:57.001Z</time></trkpt><trkpt lat="40.02222095338655" lon="18.172530713089536"><ele>151.0</ele><time>2026-05-03T09:30:58.001Z</time></trkpt><trkpt lat="40.02232374074842" lon="18.172414748088965"><ele>151.0</ele><time>2026-05-03T09:30:59.001Z</time></trkpt><trkpt lat="40.02242542855306" lon="18.172297981546397"><ele>151.0</ele><time>2026-05-03T09:31:00.001Z</time></trkpt><trkpt lat="40.0225242882071" lon="18.172179149133644"><ele>151.0</ele><time>2026-05-03T09:31:01.001Z</time></trkpt><trkpt lat="40.022625356345124" lon="18.172069376233832"><ele>151.0</ele><time>2026-05-03T09:31:02.001Z</time></trkpt><trkpt lat="40.022719221397644" lon="18.171962253967017"><ele>151.0</ele><time>2026-05-03T09:31:03.001Z</time></trkpt><trkpt lat="40.022817834950125" lon="18.171852252433894"><ele>151.0</ele><time>2026-05-03T09:31:04.001Z</time></trkpt><trkpt lat="40.022915650676914" lon="18.171739349253635"><ele>151.0</ele><time>2026-05-03T09:31:05.001Z</time></trkpt><trkpt lat="40.02301423121111" lon="18.17162872074428"><ele>151.0</ele><time>2026-05-03T09:31:06.001Z</time></trkpt><trkpt lat="40.02311501104779" lon="18.171514276682935"><ele>151.0</ele><time>2026-05-03T09:31:07.001Z</time></trkpt><trkpt lat="40.02321429328535" lon="18.171400673405522"><ele>151.0</ele><time>2026-05-03T09:31:08.001Z</time></trkpt><trkpt lat="40.023312728259405" lon="18.171283857162372"><ele>151.0</ele><time>2026-05-03T09:31:09.001Z</time></trkpt><trkpt lat="40.023413090477696" lon="18.171178418100993"><ele>151.0</ele><time>2026-05-03T09:31:10.001Z</time></trkpt><trkpt lat="40.02350968693952" lon="18.17106445753322"><ele>151.0</ele><time>2026-05-03T09:31:11.001Z</time></trkpt><trkpt lat="40.02360942238457" lon="18.17094579779961"><ele>151.0</ele><time>2026-05-03T09:31:12.001Z</time></trkpt><trkpt lat="40.02371729210205" lon="18.170834380734323"><ele>151.0</ele><time>2026-05-03T09:31:13.001Z</time></trkpt><trkpt lat="40.02382244053248" lon="18.170721453036265"><ele>151.0</ele><time>2026-05-03T09:31:14.001Z</time></trkpt><trkpt lat="40.02391465859597" lon="18.17060863781768"><ele>150.5</ele><time>2026-05-03T09:31:15.001Z</time></trkpt><trkpt lat="40.02400859302445" lon="18.17049153487191"><ele>150.0</ele><time>2026-05-03T09:31:16.001Z</time></trkpt><trkpt lat="40.024098389190755" lon="18.17039435407061"><ele>149.5</ele><time>2026-05-03T09:31:17.001Z</time></trkpt><trkpt lat="40.024170890235794" lon="18.17030993380213"><ele>149.0</ele><time>2026-05-03T09:31:18.001Z</time></trkpt><trkpt lat="40.024244657841244" lon="18.170205270675226"><ele>149.0</ele><time>2026-05-03T09:31:19.001Z</time></trkpt><trkpt lat="40.02432044929728" lon="18.17012437626338"><ele>149.0</ele><time>2026-05-03T09:31:20.001Z</time></trkpt><trkpt lat="40.02439005881516" lon="18.170048060603158"><ele>149.0</ele><time>2026-05-03T09:31:21.001Z</time></trkpt><trkpt lat="40.02448218386641" lon="18.169956660475897"><ele>149.0</ele><time>2026-05-03T09:31:22.001Z</time></trkpt><trkpt lat="40.02458380117248" lon="18.169832673060768"><ele>149.0</ele><time>2026-05-03T09:31:23.001Z</time></trkpt><trkpt lat="40.024703492810005" lon="18.16970206455763"><ele>149.0</ele><time>2026-05-03T09:31:24.001Z</time></trkpt><trkpt lat="40.0248211060772" lon="18.169575519497833"><ele>149.0</ele><time>2026-05-03T09:31:25.001Z</time></trkpt><trkpt lat="40.02491552874848" lon="18.169481368814125"><ele>149.0</ele><time>2026-05-03T09:31:26.001Z</time></trkpt><trkpt lat="40.02497130068121" lon="18.169417423574817"><ele>149.0</ele><time>2026-05-03T09:31:27.001Z</time></trkpt><trkpt lat="40.0250223259979" lon="18.169352919138895"><ele>149.0</ele><time>2026-05-03T09:31:43.001Z</time></trkpt><trkpt lat="40.02512175412659" lon="18.169248392788393"><ele>149.0</ele><time>2026-05-03T09:31:45.001Z</time></trkpt><trkpt lat="40.02518604864609" lon="18.169186160873405"><ele>149.0</ele><time>2026-05-03T09:31:46.001Z</time></trkpt><trkpt lat="40.02525467705591" lon="18.1691106093084"><ele>149.0</ele><time>2026-05-03T09:31:47.001Z</time></trkpt><trkpt lat="40.02533038816198" lon="18.16902049831983"><ele>149.0</ele><time>2026-05-03T09:31:48.001Z</time></trkpt><trkpt lat="40.025411026860844" lon="18.168926387017166"><ele>149.0</ele><time>2026-05-03T09:31:49.001Z</time></trkpt><trkpt lat="40.025500501581774" lon="18.168821636059484"><ele>148.25</ele><time>2026-05-03T09:31:50.001Z</time></trkpt><trkpt lat="40.025595706751126" lon="18.168714311387227"><ele>147.5</ele><time>2026-05-03T09:31:51.001Z</time></trkpt><trkpt lat="40.02569209568486" lon="18.168604104559762"><ele>146.75</ele><time>2026-05-03T09:31:52.001Z</time></trkpt><trkpt lat="40.02579550914763" lon="18.168487226116664"><ele>146.0</ele><time>2026-05-03T09:31:53.001Z</time></trkpt><trkpt lat="40.02589909279828" lon="18.168368829991902"><ele>146.0</ele><time>2026-05-03T09:31:54.001Z</time></trkpt><trkpt lat="40.026004242246465" lon="18.168247109863106"><ele>146.0</ele><time>2026-05-03T09:31:55.001Z</time></trkpt><trkpt lat="40.0261133324196" lon="18.16812560627777"><ele>146.0</ele><time>2026-05-03T09:31:56.001Z</time></trkpt><trkpt lat="40.02622221885598" lon="18.168002593365244"><ele>146.0</ele><time>2026-05-03T09:31:57.001Z</time></trkpt><trkpt lat="40.02633421605399" lon="18.16787506937313"><ele>146.0</ele><time>2026-05-03T09:31:58.001Z</time></trkpt><trkpt lat="40.02644860622942" lon="18.167748639250437"><ele>146.0</ele><time>2026-05-03T09:31:59.001Z</time></trkpt><trkpt lat="40.026564553134726" lon="18.167617751980735"><ele>146.0</ele><time>2026-05-03T09:32:00.001Z</time></trkpt><trkpt lat="40.026670510194144" lon="18.167494218468526"><ele>146.0</ele><time>2026-05-03T09:32:01.001Z</time></trkpt><trkpt lat="40.02676818973549" lon="18.16737614092493"><ele>146.0</ele><time>2026-05-03T09:32:02.001Z</time></trkpt><trkpt lat="40.02686444502398" lon="18.16726877453116"><ele>146.0</ele><time>2026-05-03T09:32:03.001Z</time></trkpt><trkpt lat="40.02695503738852" lon="18.16716441546467"><ele>146.0</ele><time>2026-05-03T09:32:04.001Z</time></trkpt><trkpt lat="40.02703840964747" lon="18.16708035938432"><ele>146.0</ele><time>2026-05-03T09:32:05.001Z</time></trkpt><trkpt lat="40.027122103862666" lon="18.167008798047668"><ele>146.0</ele><time>2026-05-03T09:32:06.001Z</time></trkpt><trkpt lat="40.02720616868033" lon="18.16695033835032"><ele>146.0</ele><time>2026-05-03T09:32:07.001Z</time></trkpt><trkpt lat="40.02728230546008" lon="18.16689290485145"><ele>146.0</ele><time>2026-05-03T09:32:08.001Z</time></trkpt><trkpt lat="40.02735210975447" lon="18.166818752600758"><ele>146.0</ele><time>2026-05-03T09:32:09.001Z</time></trkpt><trkpt lat="40.027411802059085" lon="18.166721120299446"><ele>146.0</ele><time>2026-05-03T09:32:10.001Z</time></trkpt><trkpt lat="40.02747695155339" lon="18.16661255284959"><ele>145.75</ele><time>2026-05-03T09:32:11.001Z</time></trkpt><trkpt lat="40.02755555806044" lon="18.166494294253354"><ele>145.5</ele><time>2026-05-03T09:32:12.001Z</time></trkpt><trkpt lat="40.027642718321474" lon="18.16638216157789"><ele>145.25</ele><time>2026-05-03T09:32:13.001Z</time></trkpt><trkpt lat="40.02774375292429" lon="18.16626703107577"><ele>145.0</ele><time>2026-05-03T09:32:14.001Z</time></trkpt><trkpt lat="40.02785000001882" lon="18.1661468298183"><ele>145.0</ele><time>2026-05-03T09:32:15.001Z</time></trkpt><trkpt lat="40.02797100794491" lon="18.166027689017415"><ele>145.0</ele><time>2026-05-03T09:32:16.001Z</time></trkpt><trkpt lat="40.02809739990408" lon="18.1658990081335"><ele>145.0</ele><time>2026-05-03T09:32:17.001Z</time></trkpt><trkpt lat="40.02822003232008" lon="18.165766533117615"><ele>145.33333333333334</ele><time>2026-05-03T09:32:18.001Z</time></trkpt><trkpt lat="40.028341749558294" lon="18.16562489887996"><ele>145.66666666666666</ele><time>2026-05-03T09:32:19.001Z</time></trkpt><trkpt lat="40.0284747880744" lon="18.165484586497662"><ele>146.0</ele><time>2026-05-03T09:32:20.001Z</time></trkpt><trkpt lat="40.02862678756438" lon="18.165346145014315"><ele>146.0</ele><time>2026-05-03T09:32:21.001Z</time></trkpt><trkpt lat="40.02881199078648" lon="18.165218612748436"><ele>146.0</ele><time>2026-05-03T09:32:22.001Z</time></trkpt><trkpt lat="40.02902400930956" lon="18.165096458000672"><ele>146.0</ele><time>2026-05-03T09:32:23.001Z</time></trkpt><trkpt lat="40.0292437474852" lon="18.164977946084182"><ele>145.66666666666666</ele><time>2026-05-03T09:32:24.001Z</time></trkpt><trkpt lat="40.02906605996425" lon="18.16475983122394"><ele>145.33333333333334</ele><time>2026-05-03T09:32:25.001Z</time></trkpt><trkpt lat="40.029204655701015" lon="18.164612801324065"><ele>145.0</ele><time>2026-05-03T09:32:26.001Z</time></trkpt><trkpt lat="40.02934057343042" lon="18.164459781976976"><ele>145.0</ele><time>2026-05-03T09:32:27.001Z</time></trkpt><trkpt lat="40.02947920828528" lon="18.164303686774772"><ele>145.0</ele><time>2026-05-03T09:32:28.001Z</time></trkpt><trkpt lat="40.02961365929158" lon="18.16414970029389"><ele>145.0</ele><time>2026-05-03T09:32:29.001Z</time></trkpt><trkpt lat="40.029734178288855" lon="18.16401449339164"><ele>145.0</ele><time>2026-05-03T09:32:30.001Z</time></trkpt><trkpt lat="40.02984482493843" lon="18.16388575130318"><ele>145.0</ele><time>2026-05-03T09:32:31.001Z</time></trkpt><trkpt lat="40.02995103526789" lon="18.163768993988494"><ele>145.0</ele><time>2026-05-03T09:32:32.001Z</time></trkpt><trkpt lat="40.03004071659806" lon="18.16366968550803"><ele>145.0</ele><time>2026-05-03T09:32:33.001Z</time></trkpt><trkpt lat="40.03012095105275" lon="18.163588371301046"><ele>145.0</ele><time>2026-05-03T09:32:34.001Z</time></trkpt><trkpt lat="40.03019934021002" lon="18.16351575819808"><ele>145.0</ele><time>2026-05-03T09:32:35.001Z</time></trkpt><trkpt lat="40.03027550136967" lon="18.16346724181239"><ele>145.0</ele><time>2026-05-03T09:32:36.001Z</time></trkpt><trkpt lat="40.03036838626698" lon="18.163436078928147"><ele>145.0</ele><time>2026-05-03T09:32:37.001Z</time></trkpt><trkpt lat="40.03046503083168" lon="18.16342634087619"><ele>145.0</ele><time>2026-05-03T09:32:38.001Z</time></trkpt><trkpt lat="40.030530885211796" lon="18.163393516953295"><ele>145.0</ele><time>2026-05-03T09:32:39.001Z</time></trkpt><trkpt lat="40.030577105084234" lon="18.16332499900544"><ele>145.0</ele><time>2026-05-03T09:32:40.001Z</time></trkpt><trkpt lat="40.030597749676474" lon="18.16323501964197"><ele>145.0</ele><time>2026-05-03T09:32:41.001Z</time></trkpt><trkpt lat="40.03058631257648" lon="18.163143911839"><ele>145.0</ele><time>2026-05-03T09:32:42.001Z</time></trkpt><trkpt lat="40.03054788448416" lon="18.163055205394066"><ele>145.0</ele><time>2026-05-03T09:32:43.001Z</time></trkpt><trkpt lat="40.030478668932005" lon="18.162982114393824"><ele>145.0</ele><time>2026-05-03T09:32:44.001Z</time></trkpt><trkpt lat="40.03038861506675" lon="18.162924078797513"><ele>145.0</ele><time>2026-05-03T09:32:45.001Z</time></trkpt><trkpt lat="40.030286787423805" lon="18.162862877238858"><ele>144.66666666666669</ele><time>2026-05-03T09:32:46.001Z</time></trkpt><trkpt lat="40.03019283135614" lon="18.162741266053455"><ele>144.33333333333334</ele><time>2026-05-03T09:32:47.001Z</time></trkpt><trkpt lat="40.03011381059628" lon="18.1625796175268"><ele>144.0</ele><time>2026-05-03T09:32:48.001Z</time></trkpt><trkpt lat="40.029986475816315" lon="18.16236507212882"><ele>143.0</ele><time>2026-05-03T09:32:49.001Z</time></trkpt><trkpt lat="40.029903569753074" lon="18.16215785966423"><ele>142.0</ele><time>2026-05-03T09:32:50.001Z</time></trkpt><trkpt lat="40.02982490229068" lon="18.1619718140944"><ele>141.0</ele><time>2026-05-03T09:32:51.001Z</time></trkpt><trkpt lat="40.029742418591326" lon="18.161788243235662"><ele>141.0</ele><time>2026-05-03T09:32:52.001Z</time></trkpt><trkpt lat="40.02965751107085" lon="18.16160312587104"><ele>141.0</ele><time>2026-05-03T09:32:53.001Z</time></trkpt><trkpt lat="40.02957165704795" lon="18.16141147860743"><ele>141.0</ele><time>2026-05-03T09:32:54.001Z</time></trkpt><trkpt lat="40.02948123523862" lon="18.161220984606235"><ele>140.0</ele><time>2026-05-03T09:32:55.001Z</time></trkpt><trkpt lat="40.02939641585356" lon="18.16102381992365"><ele>139.0</ele><time>2026-05-03T09:32:56.001Z</time></trkpt><trkpt lat="40.02930516530421" lon="18.16083232543815"><ele>138.0</ele><time>2026-05-03T09:32:57.001Z</time></trkpt><trkpt lat="40.02920806993847" lon="18.160641728435866"><ele>137.66666666666666</ele><time>2026-05-03T09:32:58.001Z</time></trkpt><trkpt lat="40.029105740679015" lon="18.160451838171475"><ele>137.33333333333331</ele><time>2026-05-03T09:32:59.001Z</time></trkpt><trkpt lat="40.0289892905339" lon="18.16026631121051"><ele>137.0</ele><time>2026-05-03T09:33:00.001Z</time></trkpt><trkpt lat="40.02886262245393" lon="18.1600869409413"><ele>137.0</ele><time>2026-05-03T09:33:01.001Z</time></trkpt><trkpt lat="40.02873239257774" lon="18.159914842552304"><ele>137.0</ele><time>2026-05-03T09:33:02.001Z</time></trkpt><trkpt lat="40.02859918894291" lon="18.159753639619534"><ele>137.0</ele><time>2026-05-03T09:33:03.001Z</time></trkpt><trkpt lat="40.02846879638319" lon="18.159602628189084"><ele>136.0</ele><time>2026-05-03T09:33:04.001Z</time></trkpt><trkpt lat="40.02834063259529" lon="18.15946740886904"><ele>135.0</ele><time>2026-05-03T09:33:05.001Z</time></trkpt><trkpt lat="40.028218397915325" lon="18.159343551487606"><ele>134.0</ele><time>2026-05-03T09:33:06.001Z</time></trkpt><trkpt lat="40.028100987503045" lon="18.159234556963764"><ele>134.0</ele><time>2026-05-03T09:33:07.001Z</time></trkpt><trkpt lat="40.02798088540859" lon="18.15913452862301"><ele>134.0</ele><time>2026-05-03T09:33:08.001Z</time></trkpt><trkpt lat="40.027863920068526" lon="18.159045928218905"><ele>134.0</ele><time>2026-05-03T09:33:09.001Z</time></trkpt><trkpt lat="40.02775906895324" lon="18.158966273502493"><ele>134.0</ele><time>2026-05-03T09:33:10.001Z</time></trkpt><trkpt lat="40.02767688884236" lon="18.158894626895083"><ele>134.0</ele><time>2026-05-03T09:33:11.001Z</time></trkpt><trkpt lat="40.02761710220374" lon="18.158829957971836"><ele>134.0</ele><time>2026-05-03T09:33:12.001Z</time></trkpt><trkpt lat="40.027570967787035" lon="18.1587698354417"><ele>134.0</ele><time>2026-05-03T09:33:13.001Z</time></trkpt><trkpt lat="40.027534466502765" lon="18.158699915899373"><ele>134.0</ele><time>2026-05-03T09:33:14.001Z</time></trkpt><trkpt lat="40.02749987671266" lon="18.158613563468798"><ele>134.0</ele><time>2026-05-03T09:33:15.001Z</time></trkpt><trkpt lat="40.02745734544732" lon="18.158551451281735"><ele>134.0</ele><time>2026-05-03T09:33:16.001Z</time></trkpt><trkpt lat="40.02738406295507" lon="18.158524843649516"><ele>134.0</ele><time>2026-05-03T09:33:17.001Z</time></trkpt><trkpt lat="40.02729646107667" lon="18.1585332081738"><ele>133.25</ele><time>2026-05-03T09:33:18.001Z</time></trkpt><trkpt lat="40.027191784345796" lon="18.15855884716839"><ele>132.5</ele><time>2026-05-03T09:33:19.001Z</time></trkpt><trkpt lat="40.027072666290486" lon="18.158570866089125"><ele>131.75</ele><time>2026-05-03T09:33:20.001Z</time></trkpt><trkpt lat="40.0269271905588" lon="18.158535045963042"><ele>131.0</ele><time>2026-05-03T09:33:21.001Z</time></trkpt><trkpt lat="40.02675043376528" lon="18.15845855095456"><ele>130.0</ele><time>2026-05-03T09:33:22.001Z</time></trkpt><trkpt lat="40.026561166843315" lon="18.15838268464577"><ele>129.0</ele><time>2026-05-03T09:33:23.001Z</time></trkpt><trkpt lat="40.026351628665594" lon="18.158310581223812"><ele>128.0</ele><time>2026-05-03T09:33:24.001Z</time></trkpt><trkpt lat="40.02613420437657" lon="18.15824851364396"><ele>128.5</ele><time>2026-05-03T09:33:25.001Z</time></trkpt><trkpt lat="40.025913348432965" lon="18.15817703373946"><ele>129.0</ele><time>2026-05-03T09:33:26.001Z</time></trkpt><trkpt lat="40.02569514653772" lon="18.158092077906325"><ele>129.0</ele><time>2026-05-03T09:33:27.001Z</time></trkpt><trkpt lat="40.025480052957214" lon="18.157981347397417"><ele>129.0</ele><time>2026-05-03T09:33:28.001Z</time></trkpt><trkpt lat="40.0252769990802" lon="18.157832441722753"><ele>129.0</ele><time>2026-05-03T09:33:29.001Z</time></trkpt><trkpt lat="40.02507177281392" lon="18.157661302410762"><ele>129.0</ele><time>2026-05-03T09:33:30.001Z</time></trkpt><trkpt lat="40.02487459788336" lon="18.157486130706452"><ele>128.0</ele><time>2026-05-03T09:33:31.001Z</time></trkpt><trkpt lat="40.02468532105612" lon="18.157301237502242"><ele>127.0</ele><time>2026-05-03T09:33:32.001Z</time></trkpt><trkpt lat="40.02450430210269" lon="18.157111046946724"><ele>127.0</ele><time>2026-05-03T09:33:33.001Z</time></trkpt><trkpt lat="40.02434804086969" lon="18.15690101536606"><ele>127.0</ele><time>2026-05-03T09:33:34.001Z</time></trkpt><trkpt lat="40.02418851984547" lon="18.156709281589436"><ele>127.0</ele><time>2026-05-03T09:33:35.001Z</time></trkpt><trkpt lat="40.02402818370255" lon="18.15652206016707"><ele>125.5</ele><time>2026-05-03T09:33:36.001Z</time></trkpt><trkpt lat="40.02386555158728" lon="18.15632430534556"><ele>124.0</ele><time>2026-05-03T09:33:37.001Z</time></trkpt><trkpt lat="40.02369827234901" lon="18.15611916325431"><ele>124.0</ele><time>2026-05-03T09:33:38.001Z</time></trkpt><trkpt lat="40.023530860138" lon="18.15591785167091"><ele>124.0</ele><time>2026-05-03T09:33:39.001Z</time></trkpt><trkpt lat="40.023366029580245" lon="18.155710562977095"><ele>122.0</ele><time>2026-05-03T09:33:40.001Z</time></trkpt><trkpt lat="40.02320003416285" lon="18.155507039585164"><ele>120.0</ele><time>2026-05-03T09:33:41.001Z</time></trkpt><trkpt lat="40.023044097764675" lon="18.155313002618147"><ele>118.0</ele><time>2026-05-03T09:33:42.001Z</time></trkpt><trkpt lat="40.02289542618954" lon="18.155130535669848"><ele>118.0</ele><time>2026-05-03T09:33:43.001Z</time></trkpt><trkpt lat="40.022757356504066" lon="18.154947833823776"><ele>118.0</ele><time>2026-05-03T09:33:44.001Z</time></trkpt><trkpt lat="40.02262731754568" lon="18.15476408627979"><ele>118.0</ele><time>2026-05-03T09:33:45.001Z</time></trkpt><trkpt lat="40.0225104615886" lon="18.15458340324489"><ele>115.33333333333334</ele><time>2026-05-03T09:33:46.001Z</time></trkpt><trkpt lat="40.02239575940491" lon="18.154401924193547"><ele>112.66666666666666</ele><time>2026-05-03T09:33:47.001Z</time></trkpt><trkpt lat="40.0222959518889" lon="18.154219406310347"><ele>110.0</ele><time>2026-05-03T09:33:48.001Z</time></trkpt><trkpt lat="40.02220050582113" lon="18.154032367722262"><ele>110.0</ele><time>2026-05-03T09:33:49.001Z</time></trkpt><trkpt lat="40.02211182917652" lon="18.153843055684845"><ele>110.0</ele><time>2026-05-03T09:33:50.001Z</time></trkpt><trkpt lat="40.02202689316322" lon="18.153657191908046"><ele>110.0</ele><time>2026-05-03T09:33:51.001Z</time></trkpt><trkpt lat="40.021948077710796" lon="18.153471619361504"><ele>110.0</ele><time>2026-05-03T09:33:52.001Z</time></trkpt><trkpt lat="40.02187137257527" lon="18.153297659295646"><ele>110.0</ele><time>2026-05-03T09:33:53.001Z</time></trkpt><trkpt lat="40.02180053052777" lon="18.153144311652646"><ele>110.0</ele><time>2026-05-03T09:33:54.001Z</time></trkpt><trkpt lat="40.02174051025918" lon="18.152987509643953"><ele>110.0</ele><time>2026-05-03T09:33:55.001Z</time></trkpt><trkpt lat="40.02168133251272" lon="18.152850551031676"><ele>109.8</ele><time>2026-05-03T09:33:56.001Z</time></trkpt><trkpt lat="40.021632197744026" lon="18.152724497798296"><ele>109.6</ele><time>2026-05-03T09:33:57.001Z</time></trkpt><trkpt lat="40.021587391721425" lon="18.152613927592732"><ele>109.4</ele><time>2026-05-03T09:33:58.001Z</time></trkpt><trkpt lat="40.02156553365719" lon="18.152515303564197"><ele>109.2</ele><time>2026-05-03T09:33:59.001Z</time></trkpt><trkpt lat="40.02158021743783" lon="18.15240247792937"><ele>109.0</ele><time>2026-05-03T09:34:00.001Z</time></trkpt><trkpt lat="40.02159643456589" lon="18.15229287509591"><ele>108.6</ele><time>2026-05-03T09:34:01.001Z</time></trkpt><trkpt lat="40.02158766392272" lon="18.152188088754276"><ele>108.2</ele><time>2026-05-03T09:34:02.001Z</time></trkpt><trkpt lat="40.021545019366776" lon="18.15210735905857"><ele>107.79999999999998</ele><time>2026-05-03T09:34:03.001Z</time></trkpt><trkpt lat="40.02146762090942" lon="18.152063785294754"><ele>107.39999999999999</ele><time>2026-05-03T09:34:04.001Z</time></trkpt><trkpt lat="40.02135931387799" lon="18.15203906175024"><ele>107.0</ele><time>2026-05-03T09:34:05.001Z</time></trkpt><trkpt lat="40.02124066728675" lon="18.151999316258543"><ele>107.0</ele><time>2026-05-03T09:34:06.001Z</time></trkpt><trkpt lat="40.02112489644479" lon="18.15190560775231"><ele>107.0</ele><time>2026-05-03T09:34:07.001Z</time></trkpt><trkpt lat="40.02100086909526" lon="18.151745986634342"><ele>107.0</ele><time>2026-05-03T09:34:08.001Z</time></trkpt><trkpt lat="40.0208786500876" lon="18.151569139858616"><ele>105.33333333333333</ele><time>2026-05-03T09:34:09.001Z</time></trkpt><trkpt lat="40.02074410426651" lon="18.151375553300195"><ele>103.66666666666666</ele><time>2026-05-03T09:34:10.001Z</time></trkpt><trkpt lat="40.02060477762844" lon="18.151174592310237"><ele>102.0</ele><time>2026-05-03T09:34:11.001Z</time></trkpt><trkpt lat="40.02046629579975" lon="18.150945732471495"><ele>102.0</ele><time>2026-05-03T09:34:12.001Z</time></trkpt><trkpt lat="40.020329836483434" lon="18.15069306679312"><ele>102.0</ele><time>2026-05-03T09:34:13.001Z</time></trkpt><trkpt lat="40.020208741293175" lon="18.150421688044545"><ele>102.0</ele><time>2026-05-03T09:34:14.001Z</time></trkpt><trkpt lat="40.020093219184574" lon="18.15015154101024"><ele>102.0</ele><time>2026-05-03T09:34:15.001Z</time></trkpt><trkpt lat="40.01998024202725" lon="18.14987675278551"><ele>101.0</ele><time>2026-05-03T09:34:16.001Z</time></trkpt><trkpt lat="40.01986863695787" lon="18.1496121228066"><ele>100.0</ele><time>2026-05-03T09:34:17.001Z</time></trkpt><trkpt lat="40.01976126744647" lon="18.149358887492276"><ele>100.0</ele><time>2026-05-03T09:34:18.001Z</time></trkpt><trkpt lat="40.01965569095676" lon="18.149132339842527"><ele>100.0</ele><time>2026-05-03T09:34:19.001Z</time></trkpt><trkpt lat="40.01956571268478" lon="18.148922408794935"><ele>100.0</ele><time>2026-05-03T09:34:20.001Z</time></trkpt><trkpt lat="40.01949196814865" lon="18.14874046620224"><ele>100.6</ele><time>2026-05-03T09:34:21.001Z</time></trkpt><trkpt lat="40.019423951224276" lon="18.14858830988273"><ele>101.2</ele><time>2026-05-03T09:34:22.001Z</time></trkpt><trkpt lat="40.01936906231448" lon="18.14846324195866"><ele>101.80000000000001</ele><time>2026-05-03T09:34:23.001Z</time></trkpt><trkpt lat="40.01933164949021" lon="18.148342831357542"><ele>102.4</ele><time>2026-05-03T09:34:24.001Z</time></trkpt><trkpt lat="40.019315959985015" lon="18.1482375001275"><ele>103.0</ele><time>2026-05-03T09:34:25.001Z</time></trkpt><trkpt lat="40.01933082759346" lon="18.148070618730866"><ele>103.66666666666667</ele><time>2026-05-03T09:34:26.001Z</time></trkpt><trkpt lat="40.01934946001977" lon="18.147887408066303"><ele>104.33333333333334</ele><time>2026-05-03T09:34:27.001Z</time></trkpt><trkpt lat="40.01939643306384" lon="18.147697896076547"><ele>105.0</ele><time>2026-05-03T09:34:28.001Z</time></trkpt><trkpt lat="40.01947120369977" lon="18.14750005343493"><ele>106.0</ele><time>2026-05-03T09:34:29.001Z</time></trkpt><trkpt lat="40.019599612991236" lon="18.147278313345392"><ele>107.0</ele><time>2026-05-03T09:34:30.001Z</time></trkpt><trkpt lat="40.019728069856896" lon="18.14706043175009"><ele>108.0</ele><time>2026-05-03T09:34:31.001Z</time></trkpt><trkpt lat="40.019844517099656" lon="18.146845984852483"><ele>108.0</ele><time>2026-05-03T09:34:32.001Z</time></trkpt><trkpt lat="40.019958149824305" lon="18.146626230840965"><ele>108.0</ele><time>2026-05-03T09:34:33.001Z</time></trkpt><trkpt lat="40.02006644370373" lon="18.146426315294935"><ele>108.0</ele><time>2026-05-03T09:34:34.001Z</time></trkpt><trkpt lat="40.02015806403019" lon="18.146238313723774"><ele>108.33333333333334</ele><time>2026-05-03T09:34:35.001Z</time></trkpt><trkpt lat="40.0202514021109" lon="18.146070372071488"><ele>108.66666666666667</ele><time>2026-05-03T09:34:36.001Z</time></trkpt><trkpt lat="40.020346487954434" lon="18.14590569243673"><ele>109.0</ele><time>2026-05-03T09:34:37.001Z</time></trkpt><trkpt lat="40.02043703905393" lon="18.14573244738591"><ele>109.33333333333334</ele><time>2026-05-03T09:34:38.001Z</time></trkpt><trkpt lat="40.02052561002189" lon="18.145568085690204"><ele>109.66666666666666</ele><time>2026-05-03T09:34:39.001Z</time></trkpt><trkpt lat="40.02061173943522" lon="18.145407648046945"><ele>110.0</ele><time>2026-05-03T09:34:40.001Z</time></trkpt><trkpt lat="40.02070025629626" lon="18.14524871345453"><ele>110.0</ele><time>2026-05-03T09:34:41.001Z</time></trkpt><trkpt lat="40.020780605709284" lon="18.14509683514001"><ele>110.0</ele><time>2026-05-03T09:34:42.001Z</time></trkpt><trkpt lat="40.02085986507172" lon="18.14493994007075"><ele>110.0</ele><time>2026-05-03T09:34:43.001Z</time></trkpt><trkpt lat="40.0209378826428" lon="18.144785073328958"><ele>110.0</ele><time>2026-05-03T09:34:44.001Z</time></trkpt><trkpt lat="40.02101989141796" lon="18.144643452797883"><ele>110.75</ele><time>2026-05-03T09:34:45.001Z</time></trkpt><trkpt lat="40.021101029741175" lon="18.144492272200687"><ele>111.5</ele><time>2026-05-03T09:34:46.001Z</time></trkpt><trkpt lat="40.02118021530221" lon="18.144336832561272"><ele>112.25</ele><time>2026-05-03T09:34:47.001Z</time></trkpt><trkpt lat="40.021264244902575" lon="18.144183196762643"><ele>113.0</ele><time>2026-05-03T09:34:48.001Z</time></trkpt><trkpt lat="40.02134934459428" lon="18.144029528785794"><ele>113.0</ele><time>2026-05-03T09:34:49.001Z</time></trkpt><trkpt lat="40.02142818503217" lon="18.143882349477963"><ele>113.0</ele><time>2026-05-03T09:34:50.001Z</time></trkpt><trkpt lat="40.021506717548405" lon="18.14373245774113"><ele>113.0</ele><time>2026-05-03T09:34:51.001Z</time></trkpt><trkpt lat="40.02158078845242" lon="18.14359198041454"><ele>113.0</ele><time>2026-05-03T09:34:52.001Z</time></trkpt><trkpt lat="40.02165104948804" lon="18.143457718089827"><ele>113.25</ele><time>2026-05-03T09:34:53.001Z</time></trkpt><trkpt lat="40.021719052188864" lon="18.143327473649705"><ele>113.5</ele><time>2026-05-03T09:34:54.001Z</time></trkpt><trkpt lat="40.02178384490146" lon="18.143203319726897"><ele>113.75</ele><time>2026-05-03T09:34:55.001Z</time></trkpt><trkpt lat="40.02185036458584" lon="18.14308370311905"><ele>114.0</ele><time>2026-05-03T09:34:56.001Z</time></trkpt><trkpt lat="40.021913371351864" lon="18.142962422064002"><ele>114.0</ele><time>2026-05-03T09:34:57.001Z</time></trkpt><trkpt lat="40.02197449324813" lon="18.142846281301708"><ele>114.0</ele><time>2026-05-03T09:34:58.001Z</time></trkpt><trkpt lat="40.02203263121655" lon="18.14273734749355"><ele>114.0</ele><time>2026-05-03T09:34:59.001Z</time></trkpt><trkpt lat="40.02208815536868" lon="18.14262968421852"><ele>114.0</ele><time>2026-05-03T09:35:00.001Z</time></trkpt><trkpt lat="40.0221413025375" lon="18.142532182587303"><ele>114.0</ele><time>2026-05-03T09:35:01.001Z</time></trkpt><trkpt lat="40.0221852662859" lon="18.142441051017286"><ele>114.25</ele><time>2026-05-03T09:35:02.001Z</time></trkpt><trkpt lat="40.022234779662774" lon="18.14234043034069"><ele>114.5</ele><time>2026-05-03T09:35:03.001Z</time></trkpt><trkpt lat="40.02230596696436" lon="18.142207802900504"><ele>114.75</ele><time>2026-05-03T09:35:04.001Z</time></trkpt><trkpt lat="40.02240339614196" lon="18.142047220133637"><ele>115.0</ele><time>2026-05-03T09:35:05.001Z</time></trkpt><trkpt lat="40.0225076520625" lon="18.14186226097702"><ele>115.0</ele><time>2026-05-03T09:35:06.001Z</time></trkpt><trkpt lat="40.02261495495926" lon="18.14166472320542"><ele>115.0</ele><time>2026-05-03T09:35:07.001Z</time></trkpt><trkpt lat="40.02272939388883" lon="18.141474425389475"><ele>115.0</ele><time>2026-05-03T09:35:08.001Z</time></trkpt><trkpt lat="40.02282276996174" lon="18.14132106091031"><ele>113.0</ele><time>2026-05-03T09:35:09.001Z</time></trkpt><trkpt lat="40.022900693842786" lon="18.14117598132827"><ele>111.0</ele><time>2026-05-03T09:35:10.001Z</time></trkpt><trkpt lat="40.02297380417006" lon="18.141044172230824"><ele>109.0</ele><time>2026-05-03T09:35:11.001Z</time></trkpt><trkpt lat="40.023054320762704" lon="18.140947324862417"><ele>107.0</ele><time>2026-05-03T09:35:12.001Z</time></trkpt><trkpt lat="40.023145155452845" lon="18.14086698797214"><ele>107.0</ele><time>2026-05-03T09:35:13.001Z</time></trkpt><trkpt lat="40.023252612550436" lon="18.140785566987766"><ele>107.0</ele><time>2026-05-03T09:35:14.001Z</time></trkpt><trkpt lat="40.02337107052573" lon="18.14071800343186"><ele>107.0</ele><time>2026-05-03T09:35:15.001Z</time></trkpt><trkpt lat="40.02348189190428" lon="18.14065494368304"><ele>107.0</ele><time>2026-05-03T09:35:16.001Z</time></trkpt><trkpt lat="40.023602033586286" lon="18.14058333822225"><ele>106.5</ele><time>2026-05-03T09:35:17.001Z</time></trkpt><trkpt lat="40.023711087018185" lon="18.140505628131148"><ele>106.0</ele><time>2026-05-03T09:35:18.001Z</time></trkpt><trkpt lat="40.02382436208684" lon="18.140446081010115"><ele>105.5</ele><time>2026-05-03T09:35:19.001Z</time></trkpt><trkpt lat="40.02393769758817" lon="18.140414841381215"><ele>105.0</ele><time>2026-05-03T09:35:20.001Z</time></trkpt><trkpt lat="40.02403989913462" lon="18.140373734244033"><ele>105.0</ele><time>2026-05-03T09:35:21.001Z</time></trkpt><trkpt lat="40.02414677450684" lon="18.140336682882083"><ele>105.0</ele><time>2026-05-03T09:35:22.001Z</time></trkpt><trkpt lat="40.024235515673254" lon="18.140311615032047"><ele>105.0</ele><time>2026-05-03T09:35:23.001Z</time></trkpt><trkpt lat="40.024312798293955" lon="18.140290262686186"><ele>105.0</ele><time>2026-05-03T09:35:24.001Z</time></trkpt><trkpt lat="40.0243929095762" lon="18.140255452463027"><ele>105.0</ele><time>2026-05-03T09:35:25.001Z</time></trkpt><trkpt lat="40.02445939736785" lon="18.140210227042413"><ele>105.0</ele><time>2026-05-03T09:35:26.001Z</time></trkpt><trkpt lat="40.024510450774414" lon="18.14014896287227"><ele>105.0</ele><time>2026-05-03T09:35:27.001Z</time></trkpt><trkpt lat="40.0245630660694" lon="18.140092652420584"><ele>105.0</ele><time>2026-05-03T09:35:28.001Z</time></trkpt><trkpt lat="40.024616424564364" lon="18.140030989254274"><ele>105.0</ele><time>2026-05-03T09:35:29.001Z</time></trkpt><trkpt lat="40.02467148014988" lon="18.13996946045014"><ele>105.0</ele><time>2026-05-03T09:35:30.001Z</time></trkpt><trkpt lat="40.02472592818723" lon="18.1399113267717"><ele>105.0</ele><time>2026-05-03T09:35:31.001Z</time></trkpt><trkpt lat="40.02478743000711" lon="18.1398709818835"><ele>105.0</ele><time>2026-05-03T09:35:32.001Z</time></trkpt><trkpt lat="40.0248451768408" lon="18.139822434072123"><ele>105.0</ele><time>2026-05-03T09:35:33.001Z</time></trkpt><trkpt lat="40.02489950979879" lon="18.139774678758286"><ele>103.0</ele><time>2026-05-03T09:35:34.001Z</time></trkpt><trkpt lat="40.02497257872939" lon="18.139736600748314"><ele>101.0</ele><time>2026-05-03T09:35:35.001Z</time></trkpt><trkpt lat="40.02505821900535" lon="18.139707610509035"><ele>99.0</ele><time>2026-05-03T09:35:36.001Z</time></trkpt><trkpt lat="40.025143381561385" lon="18.13965675486897"><ele>97.0</ele><time>2026-05-03T09:35:37.001Z</time></trkpt><trkpt lat="40.025237266609565" lon="18.1396081761518"><ele>95.0</ele><time>2026-05-03T09:35:38.001Z</time></trkpt><trkpt lat="40.02532609727997" lon="18.139571845390456"><ele>94.8</ele><time>2026-05-03T09:35:39.001Z</time></trkpt><trkpt lat="40.02541272022091" lon="18.139542838877396"><ele>94.6</ele><time>2026-05-03T09:35:40.001Z</time></trkpt><trkpt lat="40.02549959956209" lon="18.13951197238542"><ele>94.4</ele><time>2026-05-03T09:35:41.001Z</time></trkpt><trkpt lat="40.02558173085004" lon="18.139464299220933"><ele>94.2</ele><time>2026-05-03T09:35:42.001Z</time></trkpt><trkpt lat="40.02566639245403" lon="18.139422478438917"><ele>94.0</ele><time>2026-05-03T09:35:43.001Z</time></trkpt><trkpt lat="40.02575576630384" lon="18.139378461423664"><ele>93.80000000000001</ele><time>2026-05-03T09:35:44.001Z</time></trkpt><trkpt lat="40.02585753200036" lon="18.139324916351143"><ele>93.60000000000001</ele><time>2026-05-03T09:35:45.001Z</time></trkpt><trkpt lat="40.02596316899057" lon="18.139265842198522"><ele>93.4</ele><time>2026-05-03T09:35:46.001Z</time></trkpt><trkpt lat="40.02606700954866" lon="18.13921523356899"><ele>93.2</ele><time>2026-05-03T09:35:47.001Z</time></trkpt><trkpt lat="40.026154286854414" lon="18.139171028168427"><ele>93.0</ele><time>2026-05-03T09:35:48.001Z</time></trkpt><trkpt lat="40.026236203611965" lon="18.139122275901197"><ele>93.0</ele><time>2026-05-03T09:35:49.001Z</time></trkpt><trkpt lat="40.02632843147902" lon="18.139075002084876"><ele>93.0</ele><time>2026-05-03T09:35:50.001Z</time></trkpt><trkpt lat="40.0264251041527" lon="18.1390268509995"><ele>93.0</ele><time>2026-05-03T09:35:51.001Z</time></trkpt><trkpt lat="40.02652338437781" lon="18.138974308257577"><ele>93.0</ele><time>2026-05-03T09:35:52.001Z</time></trkpt><trkpt lat="40.026628477647265" lon="18.138920580339025"><ele>93.0</ele><time>2026-05-03T09:35:53.001Z</time></trkpt><trkpt lat="40.02672887707167" lon="18.138869154638538"><ele>91.80000000000001</ele><time>2026-05-03T09:35:54.001Z</time></trkpt><trkpt lat="40.026821939850265" lon="18.138806900180676"><ele>90.6</ele><time>2026-05-03T09:35:55.001Z</time></trkpt><trkpt lat="40.026912829251" lon="18.13874093138617"><ele>89.4</ele><time>2026-05-03T09:35:56.001Z</time></trkpt><trkpt lat="40.02700293212988" lon="18.138677563512502"><ele>88.19999999999999</ele><time>2026-05-03T09:35:57.001Z</time></trkpt><trkpt lat="40.027093299352366" lon="18.138621157212867"><ele>87.0</ele><time>2026-05-03T09:35:58.001Z</time></trkpt><trkpt lat="40.027180636791826" lon="18.13858288990542"><ele>87.0</ele><time>2026-05-03T09:35:59.001Z</time></trkpt><trkpt lat="40.027277306218885" lon="18.13856005170274"><ele>87.0</ele><time>2026-05-03T09:36:00.001Z</time></trkpt><trkpt lat="40.02736717761906" lon="18.138558142864415"><ele>87.0</ele><time>2026-05-03T09:36:01.001Z</time></trkpt><trkpt lat="40.02747228474219" lon="18.13857805981723"><ele>87.0</ele><time>2026-05-03T09:36:02.001Z</time></trkpt><trkpt lat="40.027578188335745" lon="18.138587725423974"><ele>87.0</ele><time>2026-05-03T09:36:03.001Z</time></trkpt><trkpt lat="40.02767082157511" lon="18.13856760126618"><ele>87.0</ele><time>2026-05-03T09:36:04.001Z</time></trkpt><trkpt lat="40.02776605179946" lon="18.13853828214352"><ele>87.0</ele><time>2026-05-03T09:36:05.001Z</time></trkpt><trkpt lat="40.02786865534612" lon="18.138512962763127"><ele>87.0</ele><time>2026-05-03T09:36:06.001Z</time></trkpt><trkpt lat="40.02796625234277" lon="18.138486965150637"><ele>87.0</ele><time>2026-05-03T09:36:07.001Z</time></trkpt><trkpt lat="40.02805493104463" lon="18.138454717455645"><ele>87.0</ele><time>2026-05-03T09:36:08.001Z</time></trkpt><trkpt lat="40.028139917883195" lon="18.13841545819866"><ele>87.0</ele><time>2026-05-03T09:36:09.001Z</time></trkpt><trkpt lat="40.02821933990384" lon="18.138371114346292"><ele>87.0</ele><time>2026-05-03T09:36:10.001Z</time></trkpt><trkpt lat="40.02830482166386" lon="18.13832488612755"><ele>87.0</ele><time>2026-05-03T09:36:11.001Z</time></trkpt><trkpt lat="40.02838328732849" lon="18.13825168988761"><ele>87.0</ele><time>2026-05-03T09:36:12.001Z</time></trkpt><trkpt lat="40.02845077670015" lon="18.13816075326462"><ele>87.0</ele><time>2026-05-03T09:36:13.001Z</time></trkpt><trkpt lat="40.02851592551088" lon="18.138075627339017"><ele>86.83333333333333</ele><time>2026-05-03T09:36:14.001Z</time></trkpt><trkpt lat="40.02858082114872" lon="18.13798868788864"><ele>86.66666666666667</ele><time>2026-05-03T09:36:15.001Z</time></trkpt><trkpt lat="40.028639349781436" lon="18.137901447749528"><ele>86.5</ele><time>2026-05-03T09:36:16.001Z</time></trkpt><trkpt lat="40.02868991373831" lon="18.13781852431834"><ele>86.33333333333334</ele><time>2026-05-03T09:36:17.001Z</time></trkpt><trkpt lat="40.02874231472759" lon="18.13773961489982"><ele>86.16666666666667</ele><time>2026-05-03T09:36:18.001Z</time></trkpt><trkpt lat="40.02878465713509" lon="18.13765947361832"><ele>86.0</ele><time>2026-05-03T09:36:19.001Z</time></trkpt><trkpt lat="40.02881581852665" lon="18.13758009521106"><ele>86.0</ele><time>2026-05-03T09:36:20.001Z</time></trkpt><trkpt lat="40.028813144928975" lon="18.137469923278534"><ele>86.0</ele><time>2026-05-03T09:36:21.001Z</time></trkpt><trkpt lat="40.02879577076244" lon="18.137336521895907"><ele>86.0</ele><time>2026-05-03T09:36:22.001Z</time></trkpt><trkpt lat="40.02878752424493" lon="18.13719618335417"><ele>86.0</ele><time>2026-05-03T09:36:23.001Z</time></trkpt><trkpt lat="40.0287785468779" lon="18.137076962138835"><ele>86.0</ele><time>2026-05-03T09:36:24.001Z</time></trkpt><trkpt lat="40.02875828613688" lon="18.13697011914379"><ele>85.0</ele><time>2026-05-03T09:36:25.001Z</time></trkpt><trkpt lat="40.02874112720069" lon="18.136868850940996"><ele>84.0</ele><time>2026-05-03T09:36:26.001Z</time></trkpt><trkpt lat="40.02873149996841" lon="18.136765547053766"><ele>83.0</ele><time>2026-05-03T09:36:27.001Z</time></trkpt><trkpt lat="40.02873705943494" lon="18.136668560042178"><ele>82.0</ele><time>2026-05-03T09:36:28.001Z</time></trkpt><trkpt lat="40.02874791575711" lon="18.136576290196803"><ele>81.0</ele><time>2026-05-03T09:36:29.001Z</time></trkpt><trkpt lat="40.02877492308396" lon="18.136458700687278"><ele>80.0</ele><time>2026-05-03T09:36:31.001Z</time></trkpt><trkpt lat="40.02879948227638" lon="18.13637459880849"><ele>79.25</ele><time>2026-05-03T09:36:32.001Z</time></trkpt><trkpt lat="40.02883528191949" lon="18.13624496900553"><ele>78.5</ele><time>2026-05-03T09:36:33.001Z</time></trkpt><trkpt lat="40.02889438912723" lon="18.136075304572266"><ele>77.75</ele><time>2026-05-03T09:36:34.001Z</time></trkpt><trkpt lat="40.02897551571898" lon="18.13589769978822"><ele>77.0</ele><time>2026-05-03T09:36:35.001Z</time></trkpt><trkpt lat="40.02907948075584" lon="18.135706037358702"><ele>76.75</ele><time>2026-05-03T09:36:36.001Z</time></trkpt><trkpt lat="40.029187088901196" lon="18.13554681274974"><ele>76.5</ele><time>2026-05-03T09:36:37.001Z</time></trkpt><trkpt lat="40.029266802744374" lon="18.135411837929293"><ele>76.25</ele><time>2026-05-03T09:36:38.001Z</time></trkpt><trkpt lat="40.02932960685215" lon="18.135306689181125"><ele>76.0</ele><time>2026-05-03T09:36:39.001Z</time></trkpt><trkpt lat="40.029386506161586" lon="18.135210560644197"><ele>76.0</ele><time>2026-05-03T09:36:40.001Z</time></trkpt><trkpt lat="40.029463829691394" lon="18.13511355812327"><ele>76.0</ele><time>2026-05-03T09:36:41.001Z</time></trkpt><trkpt lat="40.029515752495826" lon="18.135007693080997"><ele>76.0</ele><time>2026-05-03T09:36:42.001Z</time></trkpt><trkpt lat="40.029518696957254" lon="18.134850107437135"><ele>76.0</ele><time>2026-05-03T09:36:43.001Z</time></trkpt><trkpt lat="40.02955521282621" lon="18.134767960179733"><ele>76.0</ele><time>2026-05-03T09:36:44.001Z</time></trkpt><trkpt lat="40.02960425758717" lon="18.134692320427018"><ele>75.0</ele><time>2026-05-03T09:36:45.001Z</time></trkpt><trkpt lat="40.02965996769198" lon="18.134614490188724"><ele>74.0</ele><time>2026-05-03T09:36:46.001Z</time></trkpt><trkpt lat="40.02970801946705" lon="18.134544995102686"><ele>73.0</ele><time>2026-05-03T09:36:47.001Z</time></trkpt><trkpt lat="40.02975089599571" lon="18.134475556881316"><ele>72.0</ele><time>2026-05-03T09:36:48.001Z</time></trkpt><trkpt lat="40.029799266115255" lon="18.134402326157456"><ele>71.0</ele><time>2026-05-03T09:36:50.001Z</time></trkpt><trkpt lat="40.02982554572903" lon="18.134285340463034"><ele>70.0</ele><time>2026-05-03T09:36:53.001Z</time></trkpt><trkpt lat="40.02978716785021" lon="18.134208761116923"><ele>69.4</ele><time>2026-05-03T09:36:54.001Z</time></trkpt><trkpt lat="40.029727391305975" lon="18.134046285345296"><ele>68.8</ele><time>2026-05-03T09:36:56.001Z</time></trkpt><trkpt lat="40.02970896618846" lon="18.133942758110734"><ele>68.2</ele><time>2026-05-03T09:36:57.001Z</time></trkpt><trkpt lat="40.029683582159436" lon="18.133832988733218"><ele>67.6</ele><time>2026-05-03T09:36:58.001Z</time></trkpt><trkpt lat="40.02965628036774" lon="18.1337322152098"><ele>67.0</ele><time>2026-05-03T09:36:59.001Z</time></trkpt><trkpt lat="40.029626985825765" lon="18.13363296162245"><ele>67.0</ele><time>2026-05-03T09:37:00.001Z</time></trkpt><trkpt lat="40.02960696939767" lon="18.13354777654915"><ele>67.0</ele><time>2026-05-03T09:37:01.001Z</time></trkpt><trkpt lat="40.029574097416386" lon="18.133415738106667"><ele>67.0</ele><time>2026-05-03T09:37:03.001Z</time></trkpt><trkpt lat="40.029530640105165" lon="18.133336702149194"><ele>67.0</ele><time>2026-05-03T09:37:04.001Z</time></trkpt><trkpt lat="40.02950596638481" lon="18.133241133813396"><ele>67.0</ele><time>2026-05-03T09:37:05.001Z</time></trkpt><trkpt lat="40.02949164780173" lon="18.13315580185396"><ele>67.0</ele><time>2026-05-03T09:37:06.001Z</time></trkpt><trkpt lat="40.02947794145506" lon="18.133049581963117"><ele>66.33333333333333</ele><time>2026-05-03T09:37:07.001Z</time></trkpt><trkpt lat="40.029465966479876" lon="18.132954664844075"><ele>65.66666666666666</ele><time>2026-05-03T09:37:08.001Z</time></trkpt><trkpt lat="40.029447847000185" lon="18.132851448596554"><ele>65.0</ele><time>2026-05-03T09:37:09.001Z</time></trkpt><trkpt lat="40.02943154461581" lon="18.132744349673548"><ele>64.33333333333333</ele><time>2026-05-03T09:37:10.001Z</time></trkpt><trkpt lat="40.02940094819432" lon="18.13265209707965"><ele>63.666666666666664</ele><time>2026-05-03T09:37:11.001Z</time></trkpt><trkpt lat="40.02938306691571" lon="18.13254886779743"><ele>63.0</ele><time>2026-05-03T09:37:12.001Z</time></trkpt><trkpt lat="40.02936931911402" lon="18.13244695271655"><ele>62.599999999999994</ele><time>2026-05-03T09:37:13.001Z</time></trkpt><trkpt lat="40.029332038391296" lon="18.132313128429733"><ele>62.199999999999996</ele><time>2026-05-03T09:37:15.001Z</time></trkpt><trkpt lat="40.029311684558195" lon="18.132208767616273"><ele>61.8</ele><time>2026-05-03T09:37:17.001Z</time></trkpt><trkpt lat="40.02931764532625" lon="18.132101698627107"><ele>61.4</ele><time>2026-05-03T09:37:22.001Z</time></trkpt><trkpt lat="40.02940567734834" lon="18.13204679713743"><ele>61.0</ele><time>2026-05-03T09:37:24.001Z</time></trkpt><trkpt lat="40.02951482644051" lon="18.13205678296795"><ele>61.0</ele><time>2026-05-03T09:37:26.001Z</time></trkpt><trkpt lat="40.02957978377284" lon="18.13212332876612"><ele>60.99999999999999</ele><time>2026-05-03T09:37:27.001Z</time></trkpt><trkpt lat="40.02964385450314" lon="18.13223691590629"><ele>60.99999999999999</ele><time>2026-05-03T09:37:28.001Z</time></trkpt><trkpt lat="40.02969931500421" lon="18.132355411688046"><ele>61.0</ele><time>2026-05-03T09:37:29.001Z</time></trkpt><trkpt lat="40.02971752367289" lon="18.132445262115645"><ele>61.0</ele><time>2026-05-03T09:37:30.001Z</time></trkpt><trkpt lat="40.029815730994365" lon="18.1324966148667"><ele>61.25</ele><time>2026-05-03T09:37:33.001Z</time></trkpt><trkpt lat="40.029894305708595" lon="18.13244838006956"><ele>61.5</ele><time>2026-05-03T09:37:34.001Z</time></trkpt><trkpt lat="40.03000116079959" lon="18.132378578644342"><ele>61.75</ele><time>2026-05-03T09:37:35.001Z</time></trkpt><trkpt lat="40.030128804667655" lon="18.13233158705111"><ele>62.0</ele><time>2026-05-03T09:37:36.001Z</time></trkpt><trkpt lat="40.03026680523578" lon="18.132289244535134"><ele>62.0</ele><time>2026-05-03T09:37:37.001Z</time></trkpt><trkpt lat="40.03039198849706" lon="18.132198923371693"><ele>62.0</ele><time>2026-05-03T09:37:38.001Z</time></trkpt><trkpt lat="40.03049473686432" lon="18.132142925473833"><ele>62.0</ele><time>2026-05-03T09:37:39.001Z</time></trkpt><trkpt lat="40.03058299089098" lon="18.132072577062246"><ele>62.0</ele><time>2026-05-03T09:37:40.001Z</time></trkpt><trkpt lat="40.030642839855126" lon="18.132035204073233"><ele>62.0</ele><time>2026-05-03T09:37:41.001Z</time></trkpt><trkpt lat="40.03073936369529" lon="18.131982326930494"><ele>62.400000000000006</ele><time>2026-05-03T09:37:43.001Z</time></trkpt><trkpt lat="40.030815229468374" lon="18.131961647488627"><ele>62.800000000000004</ele><time>2026-05-03T09:37:45.001Z</time></trkpt><trkpt lat="40.03090703076137" lon="18.131912493963913"><ele>63.2</ele><time>2026-05-03T09:37:47.001Z</time></trkpt><trkpt lat="40.031011543870214" lon="18.131868741766407"><ele>63.6</ele><time>2026-05-03T09:37:49.001Z</time></trkpt><trkpt lat="40.03109688610133" lon="18.131810919150826"><ele>64.0</ele><time>2026-05-03T09:37:51.001Z</time></trkpt><trkpt lat="40.03120894779061" lon="18.131749391708475"><ele>64.0</ele><time>2026-05-03T09:37:53.001Z</time></trkpt><trkpt lat="40.03126781532642" lon="18.131715818953122"><ele>63.99999999999999</ele><time>2026-05-03T09:37:54.001Z</time></trkpt><trkpt lat="40.03132483295746" lon="18.131679898319494"><ele>64.0</ele><time>2026-05-03T09:37:55.001Z</time></trkpt><trkpt lat="40.031382571028836" lon="18.13164185090857"><ele>64.0</ele><time>2026-05-03T09:37:56.001Z</time></trkpt><trkpt lat="40.0314491096948" lon="18.131613518249218"><ele>63.99999999999999</ele><time>2026-05-03T09:37:57.001Z</time></trkpt><trkpt lat="40.031505604293955" lon="18.13157563579535"><ele>64.0</ele><time>2026-05-03T09:37:58.001Z</time></trkpt><trkpt lat="40.03159580126043" lon="18.13153671881128"><ele>64.0</ele><time>2026-05-03T09:38:00.001Z</time></trkpt><trkpt lat="40.0316862967942" lon="18.131504428573784"><ele>64.0</ele><time>2026-05-03T09:38:02.001Z</time></trkpt><trkpt lat="40.03175767603382" lon="18.131448677797586"><ele>63.99999999999999</ele><time>2026-05-03T09:38:04.001Z</time></trkpt><trkpt lat="40.03182240162587" lon="18.131423213445323"><ele>64.0</ele><time>2026-05-03T09:38:06.001Z</time></trkpt><trkpt lat="40.03189175996247" lon="18.131402228315363"><ele>64.0</ele><time>2026-05-03T09:38:08.001Z</time></trkpt><trkpt lat="40.03196715468301" lon="18.131370320430054"><ele>63.99999999999999</ele><time>2026-05-03T09:38:10.002Z</time></trkpt><trkpt lat="40.03203698217854" lon="18.13132684538919"><ele>64.0</ele><time>2026-05-03T09:38:15.002Z</time></trkpt><trkpt lat="40.03210651643093" lon="18.131316407364114"><ele>64.0</ele><time>2026-05-03T09:38:19.002Z</time></trkpt><trkpt lat="40.03214798251905" lon="18.13139462412653"><ele>64.0</ele><time>2026-05-03T09:38:21.002Z</time></trkpt><trkpt lat="40.03221078447765" lon="18.131521378977716"><ele>64.0</ele><time>2026-05-03T09:38:23.002Z</time></trkpt><trkpt lat="40.03226465352122" lon="18.131652145711193"><ele>64.0</ele><time>2026-05-03T09:38:25.002Z</time></trkpt><trkpt lat="40.03230847532131" lon="18.1317610044168"><ele>64.0</ele><time>2026-05-03T09:38:27.002Z</time></trkpt><trkpt lat="40.03235971156292" lon="18.13187092489462"><ele>64.0</ele><time>2026-05-03T09:38:29.002Z</time></trkpt><trkpt lat="40.0323998966391" lon="18.1319471798491"><ele>64.16666666666666</ele><time>2026-05-03T09:38:31.002Z</time></trkpt><trkpt lat="40.032442691542734" lon="18.132020576891783"><ele>64.33333333333333</ele><time>2026-05-03T09:38:33.002Z</time></trkpt><trkpt lat="40.03248916046699" lon="18.132139680677845"><ele>64.5</ele><time>2026-05-03T09:38:35.002Z</time></trkpt><trkpt lat="40.03253048575318" lon="18.1322550952337"><ele>64.66666666666667</ele><time>2026-05-03T09:38:36.002Z</time></trkpt><trkpt lat="40.032560177856794" lon="18.13235878621518"><ele>64.83333333333334</ele><time>2026-05-03T09:38:37.002Z</time></trkpt><trkpt lat="40.03254812676397" lon="18.132473236948673"><ele>65.0</ele><time>2026-05-03T09:38:38.002Z</time></trkpt><trkpt lat="40.03257123028788" lon="18.132606942677256"><ele>65.66666666666667</ele><time>2026-05-03T09:38:40.002Z</time></trkpt><trkpt lat="40.03257324999591" lon="18.132704037275225"><ele>66.33333333333334</ele><time>2026-05-03T09:38:42.002Z</time></trkpt><trkpt lat="40.032659034448976" lon="18.132780751667102"><ele>67.0</ele><time>2026-05-03T09:39:08.002Z</time></trkpt><trkpt lat="40.03270762083246" lon="18.13284836693647"><ele>67.66666666666667</ele><time>2026-05-03T09:42:20.002Z</time></trkpt><trkpt lat="40.032808824441894" lon="18.132867410201033"><ele>68.33333333333333</ele><time>2026-05-03T09:42:23.002Z</time></trkpt><trkpt lat="40.0328730757947" lon="18.13288787199646"><ele>69.0</ele><time>2026-05-03T09:42:25.002Z</time></trkpt><trkpt lat="40.032898704258805" lon="18.132782586920758"><ele>69.0</ele><time>2026-05-03T09:42:29.002Z</time></trkpt><trkpt lat="40.032905006026034" lon="18.132640770060735"><ele>69.0</ele><time>2026-05-03T09:42:31.002Z</time></trkpt><trkpt lat="40.03291722007593" lon="18.132535668916802"><ele>69.0</ele><time>2026-05-03T09:42:32.002Z</time></trkpt><trkpt lat="40.0329477494106" lon="18.13237321522961"><ele>69.0</ele><time>2026-05-03T09:42:33.002Z</time></trkpt><trkpt lat="40.032943263537916" lon="18.13216097571092"><ele>67.8</ele><time>2026-05-03T09:42:34.002Z</time></trkpt><trkpt lat="40.032956573555275" lon="18.131984295199167"><ele>66.60000000000001</ele><time>2026-05-03T09:42:35.002Z</time></trkpt><trkpt lat="40.032959223240304" lon="18.131868344299114"><ele>65.4</ele><time>2026-05-03T09:42:36.002Z</time></trkpt><trkpt lat="40.03295112429701" lon="18.13178622685623"><ele>64.2</ele><time>2026-05-03T09:42:39.002Z</time></trkpt><trkpt lat="40.03305800673926" lon="18.131725483293913"><ele>63.0</ele><time>2026-05-03T09:42:41.002Z</time></trkpt><trkpt lat="40.03312854124925" lon="18.13169351781563"><ele>63.0</ele><time>2026-05-03T09:42:42.002Z</time></trkpt><trkpt lat="40.03324574091124" lon="18.131672409361308"><ele>63.0</ele><time>2026-05-03T09:42:43.002Z</time></trkpt><trkpt lat="40.03338669809868" lon="18.131639816837357"><ele>63.0</ele><time>2026-05-03T09:42:44.002Z</time></trkpt><trkpt lat="40.03354821877204" lon="18.131623873887122"><ele>63.0</ele><time>2026-05-03T09:42:45.002Z</time></trkpt><trkpt lat="40.033632305797525" lon="18.13160597359404"><ele>62.833333333333336</ele><time>2026-05-03T09:42:46.002Z</time></trkpt><trkpt lat="40.03368991143654" lon="18.131546859174613"><ele>62.66666666666667</ele><time>2026-05-03T09:43:07.002Z</time></trkpt><trkpt lat="40.03369273710224" lon="18.131458019330196"><ele>62.5</ele><time>2026-05-03T09:43:09.002Z</time></trkpt><trkpt lat="40.033663788776906" lon="18.131361670666497"><ele>62.333333333333336</ele><time>2026-05-03T09:43:10.002Z</time></trkpt><trkpt lat="40.03363272085302" lon="18.131278311880585"><ele>62.16666666666667</ele><time>2026-05-03T09:43:11.002Z</time></trkpt><trkpt lat="40.03359604168714" lon="18.131201268109553"><ele>62.0</ele><time>2026-05-03T09:43:12.002Z</time></trkpt><trkpt lat="40.03355822557862" lon="18.131081414620212"><ele>62.0</ele><time>2026-05-03T09:43:13.002Z</time></trkpt><trkpt lat="40.033514960171026" lon="18.130937323770972"><ele>62.0</ele><time>2026-05-03T09:43:14.002Z</time></trkpt><trkpt lat="40.03349235384027" lon="18.13085876856206"><ele>62.0</ele><time>2026-05-03T09:43:15.002Z</time></trkpt><trkpt lat="40.033443575294825" lon="18.130781259559424"><ele>62.0</ele><time>2026-05-03T09:43:18.002Z</time></trkpt><trkpt lat="40.03332564677979" lon="18.13078538898007"><ele>62.0</ele><time>2026-05-03T09:43:20.002Z</time></trkpt><trkpt lat="40.033231185385034" lon="18.13082375577451"><ele>62.0</ele><time>2026-05-03T09:43:21.002Z</time></trkpt><trkpt lat="40.03310865604785" lon="18.130892725161864"><ele>62.0</ele><time>2026-05-03T09:43:22.002Z</time></trkpt><trkpt lat="40.03295984270435" lon="18.130963383189773"><ele>62.0</ele><time>2026-05-03T09:43:23.002Z</time></trkpt><trkpt lat="40.03284577068804" lon="18.131007694104"><ele>62.0</ele><time>2026-05-03T09:43:24.002Z</time></trkpt><trkpt lat="40.03278217544486" lon="18.131042842981014"><ele>62.0</ele><time>2026-05-03T09:43:25.002Z</time></trkpt><trkpt lat="40.032706263336316" lon="18.131066781305762"><ele>62.0</ele><time>2026-05-03T09:43:27.002Z</time></trkpt><trkpt lat="40.03257554919712" lon="18.131128228542238"><ele>62.0</ele><time>2026-05-03T09:43:29.002Z</time></trkpt><trkpt lat="40.03250936059835" lon="18.13115410967051"><ele>62.0</ele><time>2026-05-03T09:43:30.002Z</time></trkpt><trkpt lat="40.03241620728176" lon="18.131191370444565"><ele>62.0</ele><time>2026-05-03T09:43:31.002Z</time></trkpt><trkpt lat="40.032329493181884" lon="18.13122910887868"><ele>62.400000000000006</ele><time>2026-05-03T09:43:32.002Z</time></trkpt><trkpt lat="40.03224155975892" lon="18.13127165286654"><ele>62.800000000000004</ele><time>2026-05-03T09:43:34.002Z</time></trkpt><trkpt lat="40.03218132742755" lon="18.13123095885461"><ele>63.2</ele><time>2026-05-03T09:43:36.002Z</time></trkpt><trkpt lat="40.03210718109128" lon="18.131128578967488"><ele>63.6</ele><time>2026-05-03T09:43:38.002Z</time></trkpt><trkpt lat="40.032039959096394" lon="18.13099744341626"><ele>64.0</ele><time>2026-05-03T09:43:40.002Z</time></trkpt><trkpt lat="40.032010595473224" lon="18.130909799287288"><ele>63.99999999999999</ele><time>2026-05-03T09:43:42.002Z</time></trkpt><trkpt lat="40.03196577234677" lon="18.13084316166397"><ele>64.0</ele><time>2026-05-03T09:43:56.002Z</time></trkpt><trkpt lat="40.031947345871785" lon="18.130754491364446"><ele>64.0</ele><time>2026-05-03T09:43:59.002Z</time></trkpt><trkpt lat="40.031895470295666" lon="18.130707112988905"><ele>64.0</ele><time>2026-05-03T09:44:03.002Z</time></trkpt><trkpt lat="40.03183125236253" lon="18.130723401742053"><ele>63.99999999999999</ele><time>2026-05-03T09:44:05.002Z</time></trkpt><trkpt lat="40.03174508645293" lon="18.130763826843832"><ele>64.0</ele><time>2026-05-03T09:44:07.002Z</time></trkpt><trkpt lat="40.03163287401223" lon="18.130823797022508"><ele>63.857142857142854</ele><time>2026-05-03T09:44:09.002Z</time></trkpt><trkpt lat="40.031569830737965" lon="18.13085874584257"><ele>63.71428571428571</ele><time>2026-05-03T09:44:10.002Z</time></trkpt><trkpt lat="40.03150086058537" lon="18.13089805307121"><ele>63.57142857142857</ele><time>2026-05-03T09:44:11.002Z</time></trkpt><trkpt lat="40.03142862699754" lon="18.1309216835341"><ele>63.42857142857143</ele><time>2026-05-03T09:44:12.002Z</time></trkpt><trkpt lat="40.03136684286416" lon="18.13095474320341"><ele>63.285714285714285</ele><time>2026-05-03T09:44:13.002Z</time></trkpt><trkpt lat="40.031303248709904" lon="18.130987117491582"><ele>63.14285714285714</ele><time>2026-05-03T09:44:14.002Z</time></trkpt><trkpt lat="40.031227395555845" lon="18.131026431857173"><ele>63.0</ele><time>2026-05-03T09:44:15.002Z</time></trkpt><trkpt lat="40.03114704759775" lon="18.13106678758176"><ele>63.0</ele><time>2026-05-03T09:44:16.002Z</time></trkpt><trkpt lat="40.03105765771207" lon="18.13110635315525"><ele>63.0</ele><time>2026-05-03T09:44:17.002Z</time></trkpt><trkpt lat="40.03096561110061" lon="18.131153145433927"><ele>63.0</ele><time>2026-05-03T09:44:18.002Z</time></trkpt><trkpt lat="40.03086711029646" lon="18.131195859023705"><ele>63.0</ele><time>2026-05-03T09:44:19.002Z</time></trkpt><trkpt lat="40.030769198050265" lon="18.13123086740078"><ele>63.0</ele><time>2026-05-03T09:44:20.002Z</time></trkpt><trkpt lat="40.03067935189917" lon="18.131285582906813"><ele>62.2</ele><time>2026-05-03T09:44:21.002Z</time></trkpt><trkpt lat="40.0305823539808" lon="18.131325483475727"><ele>61.4</ele><time>2026-05-03T09:44:22.002Z</time></trkpt><trkpt lat="40.03050122836063" lon="18.131373204654746"><ele>60.60000000000001</ele><time>2026-05-03T09:44:23.002Z</time></trkpt><trkpt lat="40.03040896384514" lon="18.13141159732396"><ele>59.800000000000004</ele><time>2026-05-03T09:44:24.002Z</time></trkpt><trkpt lat="40.030306400848175" lon="18.131458998022566"><ele>59.0</ele><time>2026-05-03T09:44:25.002Z</time></trkpt><trkpt lat="40.030211198639954" lon="18.13150088024793"><ele>59.0</ele><time>2026-05-03T09:44:26.002Z</time></trkpt><trkpt lat="40.03011677863862" lon="18.131533864191667"><ele>59.00000000000001</ele><time>2026-05-03T09:44:27.002Z</time></trkpt><trkpt lat="40.03001627361274" lon="18.131579618927784"><ele>59.00000000000001</ele><time>2026-05-03T09:44:28.002Z</time></trkpt><trkpt lat="40.02991888308294" lon="18.131627325098176"><ele>59.0</ele><time>2026-05-03T09:44:29.002Z</time></trkpt><trkpt lat="40.02982580976109" lon="18.131669663001585"><ele>59.0</ele><time>2026-05-03T09:44:30.002Z</time></trkpt><trkpt lat="40.02976055387667" lon="18.131705438908018"><ele>59.400000000000006</ele><time>2026-05-03T09:44:31.002Z</time></trkpt><trkpt lat="40.02968537464748" lon="18.131742886560215"><ele>59.800000000000004</ele><time>2026-05-03T09:44:33.002Z</time></trkpt><trkpt lat="40.02962791063523" lon="18.13177968073062"><ele>60.199999999999996</ele><time>2026-05-03T09:44:35.002Z</time></trkpt><trkpt lat="40.02952261453758" lon="18.13182252560792"><ele>60.599999999999994</ele><time>2026-05-03T09:44:37.002Z</time></trkpt><trkpt lat="40.02941849762698" lon="18.131873701385107"><ele>61.0</ele><time>2026-05-03T09:44:39.002Z</time></trkpt><trkpt lat="40.02931743950018" lon="18.131918818473448"><ele>61.0</ele><time>2026-05-03T09:44:41.002Z</time></trkpt><trkpt lat="40.0292499429837" lon="18.131996448288483"><ele>60.99999999999999</ele><time>2026-05-03T09:44:43.002Z</time></trkpt><trkpt lat="40.029236332375255" lon="18.13209983487225"><ele>60.99999999999999</ele><time>2026-05-03T09:44:45.002Z</time></trkpt><trkpt lat="40.02928713999287" lon="18.13226439811542"><ele>61.0</ele><time>2026-05-03T09:47:45Z</time></trkpt><trkpt lat="40.02931412096348" lon="18.132366539872073"><ele>61.0</ele><time>2026-05-03T09:47:48Z</time></trkpt><trkpt lat="40.02935081003977" lon="18.132504226702817"><ele>61.4</ele><time>2026-05-03T09:47:50Z</time></trkpt><trkpt lat="40.02936446167615" lon="18.13258817760905"><ele>61.8</ele><time>2026-05-03T09:47:52Z</time></trkpt><trkpt lat="40.0293283754364" lon="18.13265819451704"><ele>62.199999999999996</ele><time>2026-05-03T09:47:55Z</time></trkpt><trkpt lat="40.0292074169883" lon="18.13270004838641"><ele>62.599999999999994</ele><time>2026-05-03T09:47:57Z</time></trkpt><trkpt lat="40.02909756392604" lon="18.132730216454835"><ele>63.0</ele><time>2026-05-03T09:47:59Z</time></trkpt><trkpt lat="40.029002215665905" lon="18.132770141275856"><ele>63.0</ele><time>2026-05-03T09:48:01Z</time></trkpt><trkpt lat="40.028927611973536" lon="18.132806066469016"><ele>63.0</ele><time>2026-05-03T09:48:03Z</time></trkpt><trkpt lat="40.028866986323855" lon="18.132839647711307"><ele>63.0</ele><time>2026-05-03T09:48:05Z</time></trkpt><trkpt lat="40.02880024303276" lon="18.132867163795737"><ele>63.0</ele><time>2026-05-03T09:48:07Z</time></trkpt><trkpt lat="40.028700275191724" lon="18.132916171146984"><ele>63.0</ele><time>2026-05-03T09:48:09Z</time></trkpt><trkpt lat="40.02860984014224" lon="18.132979358055536"><ele>63.0</ele><time>2026-05-03T09:48:11Z</time></trkpt><trkpt lat="40.028538522945944" lon="18.133010514957665"><ele>63.0</ele><time>2026-05-03T09:48:13Z</time></trkpt><trkpt lat="40.02845308475123" lon="18.133056241818096"><ele>63.0</ele><time>2026-05-03T09:48:15Z</time></trkpt><trkpt lat="40.028369637284044" lon="18.133093655421497"><ele>63.0</ele><time>2026-05-03T09:48:17Z</time></trkpt><trkpt lat="40.02827938575343" lon="18.133150149499613"><ele>63.0</ele><time>2026-05-03T09:48:20Z</time></trkpt><trkpt lat="40.028216060772685" lon="18.13318519702101"><ele>63.0</ele><time>2026-05-03T09:48:21Z</time></trkpt><trkpt lat="40.0281318151046" lon="18.13322247557459"><ele>63.0</ele><time>2026-05-03T09:48:22Z</time></trkpt><trkpt lat="40.02802587133942" lon="18.133283602581038"><ele>62.666666666666664</ele><time>2026-05-03T09:48:23Z</time></trkpt><trkpt lat="40.02791539571693" lon="18.13333314718658"><ele>62.33333333333333</ele><time>2026-05-03T09:48:24Z</time></trkpt><trkpt lat="40.02783194528343" lon="18.133389071697067"><ele>62.0</ele><time>2026-05-03T09:48:25Z</time></trkpt><trkpt lat="40.027760003440164" lon="18.133455117896712"><ele>61.666666666666664</ele><time>2026-05-03T09:48:26Z</time></trkpt><trkpt lat="40.0276970553235" lon="18.133495558543032"><ele>61.33333333333333</ele><time>2026-05-03T09:48:27Z</time></trkpt><trkpt lat="40.02763089059043" lon="18.133524228344676"><ele>61.0</ele><time>2026-05-03T09:48:28Z</time></trkpt><trkpt lat="40.027561671241244" lon="18.133548910157508"><ele>61.0</ele><time>2026-05-03T09:48:29Z</time></trkpt><trkpt lat="40.02745428710188" lon="18.13358415521813"><ele>59.0</ele><time>2026-05-03T09:48:31Z</time></trkpt><trkpt lat="40.0273744864332" lon="18.133615860483776"><ele>59.0</ele><time>2026-05-03T09:48:33Z</time></trkpt><trkpt lat="40.02729621873025" lon="18.13363003821474"><ele>59.0</ele><time>2026-05-03T09:48:36Z</time></trkpt></trkseg><trkseg><trkpt lat="40.02733457800986" lon="18.133634189760606"><ele>59.0</ele><time>2026-05-03T10:41:25.248Z</time></trkpt><trkpt lat="40.02723021168637" lon="18.133620254746695"><ele>59.00000000000001</ele><time>2026-05-03T10:41:38.027Z</time></trkpt><trkpt lat="40.02713021145364" lon="18.133661417840504"><ele>59.00000000000001</ele><time>2026-05-03T10:41:41.027Z</time></trkpt><trkpt lat="40.027027386865946" lon="18.133745803520302"><ele>59.0</ele><time>2026-05-03T10:41:43.028Z</time></trkpt><trkpt lat="40.02692888951571" lon="18.133820119570117"><ele>59.0</ele><time>2026-05-03T10:41:45.028Z</time></trkpt><trkpt lat="40.02686263502514" lon="18.13384486053515"><ele>59.00000000000001</ele><time>2026-05-03T10:41:47.028Z</time></trkpt><trkpt lat="40.02680823180989" lon="18.133893603455608"><ele>59.0</ele><time>2026-05-03T10:41:51.028Z</time></trkpt><trkpt lat="40.026733854203584" lon="18.133957233722818"><ele>59.0</ele><time>2026-05-03T10:41:55.028Z</time></trkpt><trkpt lat="40.02674316486312" lon="18.134050503179466"><ele>59.0</ele><time>2026-05-03T10:41:57.028Z</time></trkpt><trkpt lat="40.02677925278574" lon="18.134145826784216"><ele>59.00000000000001</ele><time>2026-05-03T10:41:59.028Z</time></trkpt><trkpt lat="40.02681557280993" lon="18.134246953700444"><ele>59.0</ele><time>2026-05-03T10:42:01.028Z</time></trkpt><trkpt lat="40.02684398035352" lon="18.13437567048673"><ele>59.800000000000004</ele><time>2026-05-03T10:42:04.028Z</time></trkpt><trkpt lat="40.02688264391278" lon="18.13449758717192"><ele>60.60000000000001</ele><time>2026-05-03T10:42:06.028Z</time></trkpt><trkpt lat="40.0269333016969" lon="18.134657774995855"><ele>61.4</ele><time>2026-05-03T10:42:08.028Z</time></trkpt><trkpt lat="40.02695978127169" lon="18.134736618116303"><ele>62.2</ele><time>2026-05-03T10:42:09.028Z</time></trkpt><trkpt lat="40.02700589773823" lon="18.134875522492766"><ele>63.0</ele><time>2026-05-03T10:42:11.028Z</time></trkpt><trkpt lat="40.02702647525825" lon="18.134965832155597"><ele>63.285714285714285</ele><time>2026-05-03T10:42:12.028Z</time></trkpt><trkpt lat="40.02705931899763" lon="18.135059752515986"><ele>63.57142857142857</ele><time>2026-05-03T10:42:13.028Z</time></trkpt><trkpt lat="40.027091631842275" lon="18.13516386411572"><ele>63.85714285714286</ele><time>2026-05-03T10:42:14.028Z</time></trkpt><trkpt lat="40.02711648406438" lon="18.135258632598124"><ele>64.14285714285714</ele><time>2026-05-03T10:42:15.028Z</time></trkpt><trkpt lat="40.02714590125675" lon="18.135346684480865"><ele>64.42857142857143</ele><time>2026-05-03T10:42:16.028Z</time></trkpt><trkpt lat="40.02717297353391" lon="18.135431463551235"><ele>64.71428571428572</ele><time>2026-05-03T10:42:17.028Z</time></trkpt><trkpt lat="40.02720067825588" lon="18.135506290101432"><ele>65.0</ele><time>2026-05-03T10:42:18.028Z</time></trkpt><trkpt lat="40.02722185448246" lon="18.135618525257318"><ele>65.6</ele><time>2026-05-03T10:42:20.028Z</time></trkpt><trkpt lat="40.02722720125824" lon="18.135725594173778"><ele>66.2</ele><time>2026-05-03T10:42:24.028Z</time></trkpt><trkpt lat="40.02726685441376" lon="18.13584935052408"><ele>66.8</ele><time>2026-05-03T10:42:26.028Z</time></trkpt><trkpt lat="40.02730784640781" lon="18.13599698545666"><ele>67.4</ele><time>2026-05-03T10:42:28.028Z</time></trkpt><trkpt lat="40.02733111140015" lon="18.13607912766017"><ele>68.0</ele><time>2026-05-03T10:42:29.028Z</time></trkpt><trkpt lat="40.02736645136123" lon="18.13617661148179"><ele>67.99999999999999</ele><time>2026-05-03T10:42:30.028Z</time></trkpt><trkpt lat="40.02739874415225" lon="18.136286594563476"><ele>68.0</ele><time>2026-05-03T10:42:31.028Z</time></trkpt><trkpt lat="40.02741672924246" lon="18.136380048722646"><ele>68.0</ele><time>2026-05-03T10:42:32.028Z</time></trkpt><trkpt lat="40.02744338787726" lon="18.136460639824236"><ele>68.0</ele><time>2026-05-03T10:42:33.028Z</time></trkpt><trkpt lat="40.02747274467695" lon="18.136545571658615"><ele>68.0</ele><time>2026-05-03T10:42:34.028Z</time></trkpt><trkpt lat="40.02749657144362" lon="18.136635756096364"><ele>67.99999999999999</ele><time>2026-05-03T10:42:35.028Z</time></trkpt><trkpt lat="40.02752144322309" lon="18.136715361351644"><ele>68.0</ele><time>2026-05-03T10:42:36.028Z</time></trkpt><trkpt lat="40.02757025858608" lon="18.13685789185983"><ele>69.4</ele><time>2026-05-03T10:42:38.028Z</time></trkpt><trkpt lat="40.027602228227735" lon="18.1369773800643"><ele>70.8</ele><time>2026-05-03T10:42:40.028Z</time></trkpt><trkpt lat="40.02763998975655" lon="18.137072411429386"><ele>72.2</ele><time>2026-05-03T10:42:42.028Z</time></trkpt><trkpt lat="40.027741889356555" lon="18.13704845272608"><ele>73.6</ele><time>2026-05-03T10:42:46.028Z</time></trkpt><trkpt lat="40.02784121986045" lon="18.137004889200984"><ele>75.0</ele><time>2026-05-03T10:42:48.028Z</time></trkpt><trkpt lat="40.02794637307935" lon="18.136983553784415"><ele>75.0</ele><time>2026-05-03T10:42:50.028Z</time></trkpt><trkpt lat="40.028006264216785" lon="18.136936748054126"><ele>75.0</ele><time>2026-05-03T10:42:51.028Z</time></trkpt><trkpt lat="40.02807113376594" lon="18.136893372320674"><ele>75.0</ele><time>2026-05-03T10:42:52.028Z</time></trkpt><trkpt lat="40.02814041887929" lon="18.13683990461975"><ele>75.0</ele><time>2026-05-03T10:42:53.028Z</time></trkpt><trkpt lat="40.02820339937371" lon="18.13678362443766"><ele>75.0</ele><time>2026-05-03T10:42:54.028Z</time></trkpt><trkpt lat="40.028267296612285" lon="18.1367297278076"><ele>75.0</ele><time>2026-05-03T10:42:55.028Z</time></trkpt><trkpt lat="40.02831887809791" lon="18.136659196552966"><ele>75.33333333333333</ele><time>2026-05-03T10:42:56.028Z</time></trkpt><trkpt lat="40.0283879719532" lon="18.136634160213355"><ele>75.66666666666667</ele><time>2026-05-03T10:42:57.028Z</time></trkpt><trkpt lat="40.02849709646352" lon="18.136586231835437"><ele>76.0</ele><time>2026-05-03T10:42:59.028Z</time></trkpt><trkpt lat="40.028583436173605" lon="18.1365239573077"><ele>76.33333333333334</ele><time>2026-05-03T10:43:01.028Z</time></trkpt><trkpt lat="40.02864970420193" lon="18.136516201145312"><ele>76.66666666666667</ele><time>2026-05-03T10:43:04.028Z</time></trkpt><trkpt lat="40.028694596509844" lon="18.136576036340497"><ele>77.0</ele><time>2026-05-03T10:43:09.028Z</time></trkpt><trkpt lat="40.02871182079513" lon="18.13670177271629"><ele>77.5</ele><time>2026-05-03T10:43:11.028Z</time></trkpt><trkpt lat="40.02871830978121" lon="18.136785604249074"><ele>78.0</ele><time>2026-05-03T10:43:12.028Z</time></trkpt><trkpt lat="40.028724788096554" lon="18.136881155003078"><ele>78.5</ele><time>2026-05-03T10:43:13.028Z</time></trkpt><trkpt lat="40.02873452730255" lon="18.136975180898958"><ele>79.0</ele><time>2026-05-03T10:43:14.028Z</time></trkpt><trkpt lat="40.02874403043159" lon="18.13708036840829"><ele>79.5</ele><time>2026-05-03T10:43:15.028Z</time></trkpt><trkpt lat="40.028748931683424" lon="18.137191703357843"><ele>80.0</ele><time>2026-05-03T10:43:16.028Z</time></trkpt><trkpt lat="40.02876285886713" lon="18.137292778631856"><ele>81.2</ele><time>2026-05-03T10:43:17.029Z</time></trkpt><trkpt lat="40.02877413286426" lon="18.137398088351627"><ele>82.4</ele><time>2026-05-03T10:43:18.029Z</time></trkpt><trkpt lat="40.02878170518518" lon="18.137481185775076"><ele>83.6</ele><time>2026-05-03T10:43:19.029Z</time></trkpt><trkpt lat="40.02876674983133" lon="18.137646465988187"><ele>84.8</ele><time>2026-05-03T10:43:21.029Z</time></trkpt><trkpt lat="40.0287092194497" lon="18.1377258122242"><ele>86.0</ele><time>2026-05-03T10:43:22.029Z</time></trkpt><trkpt lat="40.02862815506683" lon="18.137836038562543"><ele>86.0</ele><time>2026-05-03T10:43:23.029Z</time></trkpt><trkpt lat="40.028557499577786" lon="18.13793547002193"><ele>86.0</ele><time>2026-05-03T10:43:24.029Z</time></trkpt><trkpt lat="40.02849325481752" lon="18.138026397078516"><ele>86.0</ele><time>2026-05-03T10:43:25.029Z</time></trkpt><trkpt lat="40.02842995072153" lon="18.138126517827672"><ele>86.0</ele><time>2026-05-03T10:43:26.029Z</time></trkpt><trkpt lat="40.02835669971449" lon="18.138211221579056"><ele>86.0</ele><time>2026-05-03T10:43:27.029Z</time></trkpt><trkpt lat="40.02828622285072" lon="18.138273547103083"><ele>86.16666666666667</ele><time>2026-05-03T10:43:28.029Z</time></trkpt><trkpt lat="40.02822108597404" lon="18.13831476676309"><ele>86.33333333333334</ele><time>2026-05-03T10:43:29.028Z</time></trkpt><trkpt lat="40.02816195631319" lon="18.13836115827233"><ele>86.5</ele><time>2026-05-03T10:43:30.029Z</time></trkpt><trkpt lat="40.02809480796513" lon="18.138413966306846"><ele>86.66666666666667</ele><time>2026-05-03T10:43:31.029Z</time></trkpt><trkpt lat="40.028015870863705" lon="18.138441283431803"><ele>86.83333333333333</ele><time>2026-05-03T10:43:32.029Z</time></trkpt><trkpt lat="40.02792498026046" lon="18.138468357785264"><ele>87.0</ele><time>2026-05-03T10:43:33.029Z</time></trkpt><trkpt lat="40.02783979865177" lon="18.138509515707685"><ele>87.0</ele><time>2026-05-03T10:43:34.029Z</time></trkpt><trkpt lat="40.02774263249264" lon="18.13854321353541"><ele>87.0</ele><time>2026-05-03T10:43:35.029Z</time></trkpt><trkpt lat="40.02764109101202" lon="18.138569986727482"><ele>87.0</ele><time>2026-05-03T10:43:36.029Z</time></trkpt><trkpt lat="40.027536699401814" lon="18.1386023681584"><ele>87.0</ele><time>2026-05-03T10:43:37.029Z</time></trkpt><trkpt lat="40.02742431398127" lon="18.13863120481846"><ele>87.0</ele><time>2026-05-03T10:43:38.029Z</time></trkpt><trkpt lat="40.027313395161514" lon="18.13866382071715"><ele>87.0</ele><time>2026-05-03T10:43:39.029Z</time></trkpt><trkpt lat="40.02719436492862" lon="18.13868943897064"><ele>87.0</ele><time>2026-05-03T10:43:40.029Z</time></trkpt><trkpt lat="40.02706256684824" lon="18.1387045366252"><ele>87.0</ele><time>2026-05-03T10:43:41.029Z</time></trkpt><trkpt lat="40.02694652433567" lon="18.13873849323152"><ele>87.0</ele><time>2026-05-03T10:43:42.029Z</time></trkpt><trkpt lat="40.02684194592347" lon="18.138774349044002"><ele>87.0</ele><time>2026-05-03T10:43:43.029Z</time></trkpt><trkpt lat="40.026742813726585" lon="18.13882760493439"><ele>87.0</ele><time>2026-05-03T10:43:44.029Z</time></trkpt><trkpt lat="40.02664717977369" lon="18.13888171231302"><ele>87.0</ele><time>2026-05-03T10:43:45.029Z</time></trkpt><trkpt lat="40.026552274654364" lon="18.13893215976418"><ele>87.0</ele><time>2026-05-03T10:43:46.029Z</time></trkpt><trkpt lat="40.02645849209241" lon="18.138976766957317"><ele>87.0</ele><time>2026-05-03T10:43:47.029Z</time></trkpt><trkpt lat="40.02636632718037" lon="18.13902628481592"><ele>88.19999999999999</ele><time>2026-05-03T10:43:48.029Z</time></trkpt><trkpt lat="40.02627468359928" lon="18.139080903547473"><ele>89.4</ele><time>2026-05-03T10:43:49.029Z</time></trkpt><trkpt lat="40.026179927628" lon="18.139132973114148"><ele>90.6</ele><time>2026-05-03T10:43:50.029Z</time></trkpt><trkpt lat="40.026079667314114" lon="18.13918492415828"><ele>91.80000000000001</ele><time>2026-05-03T10:43:51.029Z</time></trkpt><trkpt lat="40.02597832096478" lon="18.139236467639982"><ele>93.0</ele><time>2026-05-03T10:43:52.029Z</time></trkpt><trkpt lat="40.025874277670596" lon="18.139289724267815"><ele>93.2</ele><time>2026-05-03T10:43:53.029Z</time></trkpt><trkpt lat="40.02577823829038" lon="18.139341346195646"><ele>93.4</ele><time>2026-05-03T10:43:54.029Z</time></trkpt><trkpt lat="40.025688169132174" lon="18.139380784621864"><ele>93.60000000000001</ele><time>2026-05-03T10:43:55.029Z</time></trkpt><trkpt lat="40.02560186083313" lon="18.139412689168942"><ele>93.80000000000001</ele><time>2026-05-03T10:43:56.029Z</time></trkpt><trkpt lat="40.02549848968889" lon="18.139471561423456"><ele>94.0</ele><time>2026-05-03T10:43:58.029Z</time></trkpt><trkpt lat="40.02546508180143" lon="18.13955858241768"><ele>94.0</ele><time>2026-05-03T10:44:18.029Z</time></trkpt><trkpt lat="40.025380358446334" lon="18.139609017231074"><ele>94.0</ele><time>2026-05-03T10:44:21.029Z</time></trkpt><trkpt lat="40.02532079546375" lon="18.13964767106809"><ele>94.0</ele><time>2026-05-03T10:44:22.029Z</time></trkpt><trkpt lat="40.0252503409203" lon="18.13969699504987"><ele>94.0</ele><time>2026-05-03T10:44:23.029Z</time></trkpt><trkpt lat="40.0251743007667" lon="18.13973584543632"><ele>94.0</ele><time>2026-05-03T10:44:24.029Z</time></trkpt><trkpt lat="40.02509340362581" lon="18.139771077128614"><ele>94.0</ele><time>2026-05-03T10:44:25.029Z</time></trkpt><trkpt lat="40.025015602927844" lon="18.13980839691908"><ele>94.2</ele><time>2026-05-03T10:44:26.029Z</time></trkpt><trkpt lat="40.02493076751728" lon="18.13985801514661"><ele>94.4</ele><time>2026-05-03T10:44:27.029Z</time></trkpt><trkpt lat="40.02483617665881" lon="18.139903009300784"><ele>94.6</ele><time>2026-05-03T10:44:28.029Z</time></trkpt><trkpt lat="40.02473981744183" lon="18.139955309528766"><ele>94.8</ele><time>2026-05-03T10:44:29.029Z</time></trkpt><trkpt lat="40.02464133414634" lon="18.140012849504988"><ele>95.0</ele><time>2026-05-03T10:44:30.029Z</time></trkpt><trkpt lat="40.02454436885585" lon="18.140064985390794"><ele>97.0</ele><time>2026-05-03T10:44:31.029Z</time></trkpt><trkpt lat="40.02444939632577" lon="18.1401196052205"><ele>99.0</ele><time>2026-05-03T10:44:32.029Z</time></trkpt><trkpt lat="40.024351451040005" lon="18.140160652124937"><ele>101.0</ele><time>2026-05-03T10:44:33.029Z</time></trkpt><trkpt lat="40.024259246314635" lon="18.14021324460882"><ele>103.0</ele><time>2026-05-03T10:44:34.029Z</time></trkpt><trkpt lat="40.0241665358607" lon="18.140260073608324"><ele>105.0</ele><time>2026-05-03T10:44:35.029Z</time></trkpt><trkpt lat="40.02407243657753" lon="18.14031369570999"><ele>105.0</ele><time>2026-05-03T10:44:36.029Z</time></trkpt><trkpt lat="40.02396976797346" lon="18.14036422021141"><ele>105.0</ele><time>2026-05-03T10:44:37.029Z</time></trkpt><trkpt lat="40.02386421613787" lon="18.140419150744915"><ele>105.0</ele><time>2026-05-03T10:44:38.029Z</time></trkpt><trkpt lat="40.02375614966382" lon="18.140478183213645"><ele>105.0</ele><time>2026-05-03T10:44:39.029Z</time></trkpt><trkpt lat="40.02365394111291" lon="18.140532921042766"><ele>105.0</ele><time>2026-05-03T10:44:40.029Z</time></trkpt><trkpt lat="40.02356249556253" lon="18.1405933248625"><ele>105.0</ele><time>2026-05-03T10:44:41.029Z</time></trkpt><trkpt lat="40.02347069245622" lon="18.1406430130118"><ele>105.0</ele><time>2026-05-03T10:44:42.029Z</time></trkpt><trkpt lat="40.023385043830885" lon="18.140680321716463"><ele>105.0</ele><time>2026-05-03T10:44:43.029Z</time></trkpt><trkpt lat="40.023299217400464" lon="18.140721071614024"><ele>105.0</ele><time>2026-05-03T10:44:44.029Z</time></trkpt><trkpt lat="40.02321292963034" lon="18.14077064487482"><ele>105.4</ele><time>2026-05-03T10:44:45.029Z</time></trkpt><trkpt lat="40.02312310369133" lon="18.14082442780024"><ele>105.8</ele><time>2026-05-03T10:44:46.029Z</time></trkpt><trkpt lat="40.023031283571505" lon="18.140883075882847"><ele>106.19999999999999</ele><time>2026-05-03T10:44:47.029Z</time></trkpt><trkpt lat="40.0229457930159" lon="18.1409629555801"><ele>106.6</ele><time>2026-05-03T10:44:48.029Z</time></trkpt><trkpt lat="40.02287600589506" lon="18.14108084807719"><ele>107.0</ele><time>2026-05-03T10:44:49.029Z</time></trkpt><trkpt lat="40.0228055670292" lon="18.14121055575858"><ele>107.0</ele><time>2026-05-03T10:44:50.029Z</time></trkpt><trkpt lat="40.022734422586325" lon="18.14135274810122"><ele>106.99999999999999</ele><time>2026-05-03T10:44:51.029Z</time></trkpt><trkpt lat="40.02266971591091" lon="18.141477474441462"><ele>106.99999999999999</ele><time>2026-05-03T10:44:52.029Z</time></trkpt><trkpt lat="40.02261729433748" lon="18.14159402993685"><ele>107.0</ele><time>2026-05-03T10:44:53.029Z</time></trkpt><trkpt lat="40.02256466993027" lon="18.141693739192352"><ele>107.0</ele><time>2026-05-03T10:44:54.029Z</time></trkpt><trkpt lat="40.0225212291896" lon="18.14179434966703"><ele>107.39999999999999</ele><time>2026-05-03T10:44:55.029Z</time></trkpt><trkpt lat="40.0224792877159" lon="18.14188558183703"><ele>107.79999999999998</ele><time>2026-05-03T10:44:56.029Z</time></trkpt><trkpt lat="40.02243671286769" lon="18.14196844218513"><ele>108.2</ele><time>2026-05-03T10:44:57.029Z</time></trkpt><trkpt lat="40.022377550878" lon="18.1420990010919"><ele>108.6</ele><time>2026-05-03T10:44:59.029Z</time></trkpt><trkpt lat="40.022373393752346" lon="18.14221553968565"><ele>109.0</ele><time>2026-05-03T10:45:01.029Z</time></trkpt><trkpt lat="40.02243862267435" lon="18.142320454086825"><ele>110.00000000000001</ele><time>2026-05-03T10:45:03.029Z</time></trkpt><trkpt lat="40.02253437133866" lon="18.142381032085535"><ele>111.0</ele><time>2026-05-03T10:45:05.029Z</time></trkpt><trkpt lat="40.02265335043186" lon="18.142386175687072"><ele>112.0</ele><time>2026-05-03T10:45:07.029Z</time></trkpt><trkpt lat="40.022720993008086" lon="18.142379014628585"><ele>113.0</ele><time>2026-05-03T10:45:08.029Z</time></trkpt><trkpt lat="40.022794142489126" lon="18.142376321506926"><ele>114.00000000000001</ele><time>2026-05-03T10:45:09.029Z</time></trkpt><trkpt lat="40.022869241354016" lon="18.142373249806518"><ele>115.0</ele><time>2026-05-03T10:45:10.029Z</time></trkpt><trkpt lat="40.022940142384684" lon="18.14237003721297"><ele>115.0</ele><time>2026-05-03T10:45:11.029Z</time></trkpt><trkpt lat="40.023066873262565" lon="18.142362228244476"><ele>115.0</ele><time>2026-05-03T10:45:13.029Z</time></trkpt><trkpt lat="40.023191887865686" lon="18.14235648168239"><ele>115.0</ele><time>2026-05-03T10:45:15.029Z</time></trkpt><trkpt lat="40.0232688678345" lon="18.142359291357714"><ele>115.0</ele><time>2026-05-03T10:45:16.029Z</time></trkpt><trkpt lat="40.023346792305205" lon="18.14235697758733"><ele>115.0</ele><time>2026-05-03T10:45:17.029Z</time></trkpt><trkpt lat="40.02341373335529" lon="18.142353514659852"><ele>115.50000000000001</ele><time>2026-05-03T10:45:18.029Z</time></trkpt><trkpt lat="40.02347665278187" lon="18.14235030775165"><ele>116.0</ele><time>2026-05-03T10:45:19.029Z</time></trkpt><trkpt lat="40.02354657762169" lon="18.142351666393733"><ele>116.5</ele><time>2026-05-03T10:45:20.029Z</time></trkpt><trkpt lat="40.02362217238053" lon="18.142342304688324"><ele>117.0</ele><time>2026-05-03T10:45:21.029Z</time></trkpt><trkpt lat="40.023707893387616" lon="18.1423376166913"><ele>117.50000000000001</ele><time>2026-05-03T10:45:22.029Z</time></trkpt><trkpt lat="40.02379978946308" lon="18.142336743638605"><ele>118.0</ele><time>2026-05-03T10:45:23.029Z</time></trkpt><trkpt lat="40.02389643102976" lon="18.142333193394904"><ele>118.00000000000001</ele><time>2026-05-03T10:45:24.029Z</time></trkpt><trkpt lat="40.023991055535916" lon="18.142328150996562"><ele>118.0</ele><time>2026-05-03T10:45:25.029Z</time></trkpt><trkpt lat="40.02408479242709" lon="18.142320770375786"><ele>118.0</ele><time>2026-05-03T10:45:26.029Z</time></trkpt><trkpt lat="40.02417571299577" lon="18.142313716492218"><ele>118.0</ele><time>2026-05-03T10:45:27.029Z</time></trkpt><trkpt lat="40.02426502770077" lon="18.142310076719124"><ele>118.00000000000001</ele><time>2026-05-03T10:45:28.029Z</time></trkpt><trkpt lat="40.02434156345286" lon="18.142307682419435"><ele>118.0</ele><time>2026-05-03T10:45:29.03Z</time></trkpt><trkpt lat="40.02445324440088" lon="18.14230434905993"><ele>118.25</ele><time>2026-05-03T10:45:31.029Z</time></trkpt><trkpt lat="40.02456930524794" lon="18.142303918583195"><ele>118.5</ele><time>2026-05-03T10:45:33.029Z</time></trkpt><trkpt lat="40.02466081445574" lon="18.1423038313856"><ele>118.75</ele><time>2026-05-03T10:45:34.029Z</time></trkpt><trkpt lat="40.02478515148707" lon="18.142308468580037"><ele>119.0</ele><time>2026-05-03T10:45:35.03Z</time></trkpt><trkpt lat="40.02493068612423" lon="18.14230668841969"><ele>119.4</ele><time>2026-05-03T10:45:36.03Z</time></trkpt><trkpt lat="40.02508208125995" lon="18.14230151799926"><ele>119.80000000000001</ele><time>2026-05-03T10:45:37.03Z</time></trkpt><trkpt lat="40.02519781054222" lon="18.142282520925736"><ele>120.19999999999999</ele><time>2026-05-03T10:45:38.03Z</time></trkpt><trkpt lat="40.0252830111544" lon="18.14226933845408"><ele>120.6</ele><time>2026-05-03T10:45:39.03Z</time></trkpt><trkpt lat="40.02535055074376" lon="18.1422616076355"><ele>121.0</ele><time>2026-05-03T10:45:40.03Z</time></trkpt><trkpt lat="40.02543770404602" lon="18.14221087657366"><ele>121.0</ele><time>2026-05-03T10:45:42.03Z</time></trkpt><trkpt lat="40.02554533060626" lon="18.142052201785717"><ele>121.0</ele><time>2026-05-03T10:45:44.03Z</time></trkpt><trkpt lat="40.02565243298838" lon="18.14193859012937"><ele>121.0</ele><time>2026-05-03T10:45:45.03Z</time></trkpt><trkpt lat="40.025797937096996" lon="18.141855295409872"><ele>122.33333333333334</ele><time>2026-05-03T10:45:46.03Z</time></trkpt><trkpt lat="40.02597297989604" lon="18.14176883477482"><ele>123.66666666666666</ele><time>2026-05-03T10:45:47.03Z</time></trkpt><trkpt lat="40.026102815397266" lon="18.14166988112273"><ele>125.0</ele><time>2026-05-03T10:45:48.03Z</time></trkpt><trkpt lat="40.02621328859367" lon="18.14160264183633"><ele>125.5</ele><time>2026-05-03T10:45:49.03Z</time></trkpt><trkpt lat="40.026311042656964" lon="18.141530746640395"><ele>126.0</ele><time>2026-05-03T10:45:50.03Z</time></trkpt><trkpt lat="40.02641967686833" lon="18.141446773925864"><ele>126.5</ele><time>2026-05-03T10:45:51.03Z</time></trkpt><trkpt lat="40.02654658486372" lon="18.14135862099184"><ele>127.0</ele><time>2026-05-03T10:45:52.03Z</time></trkpt><trkpt lat="40.026687940399775" lon="18.141280055149114"><ele>127.0</ele><time>2026-05-03T10:45:53.03Z</time></trkpt><trkpt lat="40.026833043470916" lon="18.14120122004491"><ele>126.99999999999999</ele><time>2026-05-03T10:45:54.03Z</time></trkpt><trkpt lat="40.02694209867244" lon="18.14114001993669"><ele>126.99999999999999</ele><time>2026-05-03T10:45:55.03Z</time></trkpt><trkpt lat="40.02701489084265" lon="18.141090756373586"><ele>127.0</ele><time>2026-05-03T10:45:56.03Z</time></trkpt><trkpt lat="40.02708653477625" lon="18.141037212819864"><ele>127.0</ele><time>2026-05-03T10:45:58.03Z</time></trkpt><trkpt lat="40.02706722513434" lon="18.14092249163329"><ele>127.0</ele><time>2026-05-03T10:46:00.03Z</time></trkpt><trkpt lat="40.02703500475959" lon="18.140845241561614"><ele>127.0</ele><time>2026-05-03T10:46:01.03Z</time></trkpt><trkpt lat="40.026999429240306" lon="18.140763911065882"><ele>127.0</ele><time>2026-05-03T10:46:02.03Z</time></trkpt><trkpt lat="40.02697094570229" lon="18.140685507104035"><ele>115.0</ele><time>2026-05-03T10:46:03.03Z</time></trkpt><trkpt lat="40.02694590849067" lon="18.140570111217162"><ele>115.0</ele><time>2026-05-03T10:46:05.03Z</time></trkpt><trkpt lat="40.02691486280069" lon="18.140489374342522"><ele>115.0</ele><time>2026-05-03T10:46:08.03Z</time></trkpt></trkseg><trkseg><trkpt lat="40.02684435727403" lon="18.14051310523895"><ele>115.0</ele><time>2026-05-03T11:08:11.041Z</time></trkpt><trkpt lat="40.02675221748596" lon="18.140578008115128"><ele>115.0</ele><time>2026-05-03T11:08:13.041Z</time></trkpt><trkpt lat="40.02666282905817" lon="18.14064675767755"><ele>115.0</ele><time>2026-05-03T11:08:14.041Z</time></trkpt><trkpt lat="40.02655370095623" lon="18.14073241095981"><ele>115.0</ele><time>2026-05-03T11:08:15.041Z</time></trkpt><trkpt lat="40.02643639577836" lon="18.140834561339275"><ele>116.0</ele><time>2026-05-03T11:08:16.041Z</time></trkpt><trkpt lat="40.026336858593844" lon="18.140909362837707"><ele>117.0</ele><time>2026-05-03T11:08:17.041Z</time></trkpt><trkpt lat="40.02623073174922" lon="18.140985445337332"><ele>118.0</ele><time>2026-05-03T11:08:18.041Z</time></trkpt><trkpt lat="40.02610884838444" lon="18.141074769615578"><ele>119.0</ele><time>2026-05-03T11:08:19.041Z</time></trkpt><trkpt lat="40.02600584041971" lon="18.141130150571303"><ele>119.0</ele><time>2026-05-03T11:08:20.041Z</time></trkpt><trkpt lat="40.0258956704964" lon="18.141163983491836"><ele>119.0</ele><time>2026-05-03T11:08:21.041Z</time></trkpt><trkpt lat="40.02579832626877" lon="18.141162518545073"><ele>119.0</ele><time>2026-05-03T11:08:22.041Z</time></trkpt><trkpt lat="40.02570975295946" lon="18.14116143542102"><ele>119.0</ele><time>2026-05-03T11:08:23.041Z</time></trkpt><trkpt lat="40.025608665638636" lon="18.141204052558837"><ele>119.0</ele><time>2026-05-03T11:08:24.041Z</time></trkpt><trkpt lat="40.025525498723546" lon="18.141271079941667"><ele>119.5</ele><time>2026-05-03T11:08:25.041Z</time></trkpt><trkpt lat="40.02543911135189" lon="18.141361081515388"><ele>120.0</ele><time>2026-05-03T11:08:26.041Z</time></trkpt><trkpt lat="40.02532773182628" lon="18.14146492944234"><ele>120.5</ele><time>2026-05-03T11:08:27.041Z</time></trkpt><trkpt lat="40.02522419574447" lon="18.141552620532316"><ele>121.0</ele><time>2026-05-03T11:08:28.041Z</time></trkpt><trkpt lat="40.025138826856846" lon="18.141623862039562"><ele>121.00000000000001</ele><time>2026-05-03T11:08:29.041Z</time></trkpt><trkpt lat="40.02507245926869" lon="18.141667910504854"><ele>121.0</ele><time>2026-05-03T11:08:30.041Z</time></trkpt><trkpt lat="40.02499430721548" lon="18.141722317370885"><ele>121.0</ele><time>2026-05-03T11:08:32.041Z</time></trkpt><trkpt lat="40.02502184212088" lon="18.141845804354084"><ele>121.0</ele><time>2026-05-03T11:08:37.041Z</time></trkpt><trkpt lat="40.02505857527797" lon="18.1419215347588"><ele>121.00000000000001</ele><time>2026-05-03T11:08:38.041Z</time></trkpt><trkpt lat="40.025104594068424" lon="18.14200679962675"><ele>121.0</ele><time>2026-05-03T11:08:39.041Z</time></trkpt><trkpt lat="40.0251431703817" lon="18.142081291995805"><ele>121.0</ele><time>2026-05-03T11:08:40.041Z</time></trkpt><trkpt lat="40.02517396363677" lon="18.142170200921612"><ele>121.0</ele><time>2026-05-03T11:08:42.041Z</time></trkpt><trkpt lat="40.02519927477067" lon="18.14225589156908"><ele>121.0</ele><time>2026-05-03T11:08:45.041Z</time></trkpt><trkpt lat="40.025306983580634" lon="18.142311487558565"><ele>121.0</ele><time>2026-05-03T11:08:47.041Z</time></trkpt><trkpt lat="40.02543826471226" lon="18.142294460891314"><ele>121.0</ele><time>2026-05-03T11:08:49.041Z</time></trkpt><trkpt lat="40.025515060270884" lon="18.142288724230422"><ele>121.00000000000001</ele><time>2026-05-03T11:08:50.041Z</time></trkpt><trkpt lat="40.02559357105718" lon="18.142283421952698"><ele>121.0</ele><time>2026-05-03T11:08:51.041Z</time></trkpt><trkpt lat="40.025675466724906" lon="18.14227920549964"><ele>121.0</ele><time>2026-05-03T11:08:52.041Z</time></trkpt><trkpt lat="40.02577123651456" lon="18.14227320628508"><ele>121.0</ele><time>2026-05-03T11:08:53.041Z</time></trkpt><trkpt lat="40.02587563764143" lon="18.14226041782724"><ele>121.00000000000001</ele><time>2026-05-03T11:08:54.041Z</time></trkpt><trkpt lat="40.02596254871499" lon="18.142252466493712"><ele>121.0</ele><time>2026-05-03T11:08:55.041Z</time></trkpt><trkpt lat="40.02604172414192" lon="18.142253019162997"><ele>121.5</ele><time>2026-05-03T11:08:56.041Z</time></trkpt><trkpt lat="40.0261425802242" lon="18.142308360653114"><ele>122.0</ele><time>2026-05-03T11:08:58.041Z</time></trkpt><trkpt lat="40.02616546983871" lon="18.142469031093498"><ele>122.5</ele><time>2026-05-03T11:09:00.041Z</time></trkpt><trkpt lat="40.026167907749205" lon="18.142607541038032"><ele>123.0</ele><time>2026-05-03T11:09:01.041Z</time></trkpt><trkpt lat="40.026158746375366" lon="18.14275999885995"><ele>123.0</ele><time>2026-05-03T11:09:02.041Z</time></trkpt><trkpt lat="40.026154458720015" lon="18.142932269187206"><ele>123.0</ele><time>2026-05-03T11:09:03.041Z</time></trkpt><trkpt lat="40.02616183337406" lon="18.143129819140448"><ele>123.0</ele><time>2026-05-03T11:09:04.041Z</time></trkpt><trkpt lat="40.02616006535514" lon="18.14334577818137"><ele>123.0</ele><time>2026-05-03T11:09:05.041Z</time></trkpt><trkpt lat="40.026166526227975" lon="18.143536606708775"><ele>122.4</ele><time>2026-05-03T11:09:06.041Z</time></trkpt><trkpt lat="40.02616641145936" lon="18.143691417465355"><ele>121.80000000000001</ele><time>2026-05-03T11:09:07.041Z</time></trkpt><trkpt lat="40.026164125970325" lon="18.143827342848684"><ele>121.2</ele><time>2026-05-03T11:09:08.041Z</time></trkpt><trkpt lat="40.026161819643384" lon="18.143964098169377"><ele>120.6</ele><time>2026-05-03T11:09:09.041Z</time></trkpt><trkpt lat="40.02615331669508" lon="18.14409292655213"><ele>120.0</ele><time>2026-05-03T11:09:10.041Z</time></trkpt><trkpt lat="40.02614754678028" lon="18.14424228246774"><ele>119.25</ele><time>2026-05-03T11:09:11.041Z</time></trkpt><trkpt lat="40.0261358685437" lon="18.144413704686436"><ele>118.5</ele><time>2026-05-03T11:09:12.041Z</time></trkpt><trkpt lat="40.02611412083178" lon="18.144609071999337"><ele>117.75</ele><time>2026-05-03T11:09:13.041Z</time></trkpt><trkpt lat="40.02608124345284" lon="18.144800462141408"><ele>117.0</ele><time>2026-05-03T11:09:14.041Z</time></trkpt><trkpt lat="40.02605060920499" lon="18.14495825450127"><ele>116.8</ele><time>2026-05-03T11:09:15.041Z</time></trkpt><trkpt lat="40.02603592695224" lon="18.145068761317667"><ele>116.6</ele><time>2026-05-03T11:09:16.041Z</time></trkpt><trkpt lat="40.02602320867594" lon="18.145164806823566"><ele>116.39999999999999</ele><time>2026-05-03T11:09:17.041Z</time></trkpt><trkpt lat="40.02601959229334" lon="18.14530313428239"><ele>116.19999999999999</ele><time>2026-05-03T11:09:19.041Z</time></trkpt><trkpt lat="40.026081761911875" lon="18.14539204751567"><ele>116.0</ele><time>2026-05-03T11:09:22.041Z</time></trkpt><trkpt lat="40.026198417433555" lon="18.14548339787994"><ele>116.0</ele><time>2026-05-03T11:09:24.041Z</time></trkpt><trkpt lat="40.02627508326693" lon="18.145568743122656"><ele>116.0</ele><time>2026-05-03T11:09:25.041Z</time></trkpt><trkpt lat="40.0263722262444" lon="18.145660021963003"><ele>116.0</ele><time>2026-05-03T11:09:26.041Z</time></trkpt><trkpt lat="40.02650803166875" lon="18.145775459312592"><ele>116.0</ele><time>2026-05-03T11:09:27.041Z</time></trkpt><trkpt lat="40.02663270454834" lon="18.145891933823272"><ele>117.0</ele><time>2026-05-03T11:09:28.041Z</time></trkpt><trkpt lat="40.02678665483927" lon="18.14602567888701"><ele>118.0</ele><time>2026-05-03T11:09:29.041Z</time></trkpt><trkpt lat="40.02695276744216" lon="18.146178940501063"><ele>119.0</ele><time>2026-05-03T11:09:30.041Z</time></trkpt><trkpt lat="40.027124701827915" lon="18.146333380805356"><ele>119.0</ele><time>2026-05-03T11:09:31.041Z</time></trkpt><trkpt lat="40.02729654336531" lon="18.14648315826551"><ele>119.0</ele><time>2026-05-03T11:09:32.041Z</time></trkpt><trkpt lat="40.02744159741072" lon="18.14662301051282"><ele>119.0</ele><time>2026-05-03T11:09:33.041Z</time></trkpt><trkpt lat="40.02757482288795" lon="18.146733749739877"><ele>119.5</ele><time>2026-05-03T11:09:34.041Z</time></trkpt><trkpt lat="40.02768842829512" lon="18.146835252797803"><ele>120.0</ele><time>2026-05-03T11:09:35.041Z</time></trkpt><trkpt lat="40.027794807209" lon="18.146935998919187"><ele>120.5</ele><time>2026-05-03T11:09:36.041Z</time></trkpt><trkpt lat="40.02791316306555" lon="18.147042236754483"><ele>121.0</ele><time>2026-05-03T11:09:37.041Z</time></trkpt><trkpt lat="40.02803320879665" lon="18.147151125534794"><ele>121.0</ele><time>2026-05-03T11:09:38.041Z</time></trkpt><trkpt lat="40.02814951552227" lon="18.14725467185802"><ele>121.0</ele><time>2026-05-03T11:09:39.041Z</time></trkpt><trkpt lat="40.02826045485795" lon="18.14735614764006"><ele>121.0</ele><time>2026-05-03T11:09:40.041Z</time></trkpt><trkpt lat="40.02837277799756" lon="18.147457007934435"><ele>121.0</ele><time>2026-05-03T11:09:41.041Z</time></trkpt><trkpt lat="40.02848048119731" lon="18.14755933459503"><ele>122.0</ele><time>2026-05-03T11:09:42.041Z</time></trkpt><trkpt lat="40.02858906864333" lon="18.147653501225573"><ele>123.0</ele><time>2026-05-03T11:09:43.041Z</time></trkpt><trkpt lat="40.02870413401681" lon="18.147752306175107"><ele>124.0</ele><time>2026-05-03T11:09:44.041Z</time></trkpt><trkpt lat="40.028811486057215" lon="18.14784880015932"><ele>125.0</ele><time>2026-05-03T11:09:45.041Z</time></trkpt><trkpt lat="40.028927108614326" lon="18.14795009905565"><ele>125.0</ele><time>2026-05-03T11:09:46.041Z</time></trkpt><trkpt lat="40.02904500357317" lon="18.1480515241437"><ele>125.0</ele><time>2026-05-03T11:09:47.041Z</time></trkpt><trkpt lat="40.02916679116979" lon="18.148166968333967"><ele>125.0</ele><time>2026-05-03T11:09:48.041Z</time></trkpt><trkpt lat="40.029288782798155" lon="18.148277435562846"><ele>125.0</ele><time>2026-05-03T11:09:49.041Z</time></trkpt><trkpt lat="40.02940488718715" lon="18.148380324899566"><ele>125.66666666666666</ele><time>2026-05-03T11:09:50.041Z</time></trkpt><trkpt lat="40.029505131565465" lon="18.148459816871725"><ele>126.33333333333333</ele><time>2026-05-03T11:09:51.041Z</time></trkpt><trkpt lat="40.02956447483744" lon="18.148519620463766"><ele>127.0</ele><time>2026-05-03T11:09:52.041Z</time></trkpt><trkpt lat="40.02963095120277" lon="18.148553992827285"><ele>127.66666666666666</ele><time>2026-05-03T11:09:56.041Z</time></trkpt><trkpt lat="40.02972367137557" lon="18.14853876854124"><ele>128.33333333333334</ele><time>2026-05-03T11:09:58.041Z</time></trkpt><trkpt lat="40.029799278310115" lon="18.148490509430236"><ele>129.0</ele><time>2026-05-03T11:09:59.042Z</time></trkpt><trkpt lat="40.029895931417656" lon="18.148432233229965"><ele>129.0</ele><time>2026-05-03T11:10:00.042Z</time></trkpt><trkpt lat="40.02999935580835" lon="18.148369888154065"><ele>129.0</ele><time>2026-05-03T11:10:01.042Z</time></trkpt><trkpt lat="40.030117937761176" lon="18.148299978139576"><ele>129.0</ele><time>2026-05-03T11:10:02.042Z</time></trkpt><trkpt lat="40.03025373298087" lon="18.14821478691856"><ele>129.0</ele><time>2026-05-03T11:10:03.042Z</time></trkpt><trkpt lat="40.03044026043936" lon="18.14811309304224"><ele>129.0</ele><time>2026-05-03T11:10:04.041Z</time></trkpt><trkpt lat="40.03063762426429" lon="18.148009803442953"><ele>129.0</ele><time>2026-05-03T11:10:05.041Z</time></trkpt><trkpt lat="40.03083720479934" lon="18.147904868589162"><ele>129.0</ele><time>2026-05-03T11:10:06.042Z</time></trkpt><trkpt lat="40.031045686487595" lon="18.14778973784615"><ele>130.0</ele><time>2026-05-03T11:10:07.041Z</time></trkpt><trkpt lat="40.03125355742947" lon="18.147677604355252"><ele>131.0</ele><time>2026-05-03T11:10:08.041Z</time></trkpt><trkpt lat="40.03143728682618" lon="18.147578976654668"><ele>132.0</ele><time>2026-05-03T11:10:09.041Z</time></trkpt><trkpt lat="40.03159256146721" lon="18.14750183387382"><ele>132.0</ele><time>2026-05-03T11:10:10.042Z</time></trkpt><trkpt lat="40.0317390192858" lon="18.14742076903364"><ele>132.0</ele><time>2026-05-03T11:10:11.042Z</time></trkpt><trkpt lat="40.031872703599426" lon="18.147338903391674"><ele>132.0</ele><time>2026-05-03T11:10:12.041Z</time></trkpt><trkpt lat="40.03199785492645" lon="18.147267470741657"><ele>132.0</ele><time>2026-05-03T11:10:13.041Z</time></trkpt><trkpt lat="40.03210170096358" lon="18.147208476505956"><ele>131.5</ele><time>2026-05-03T11:10:14.041Z</time></trkpt><trkpt lat="40.03218585475205" lon="18.147153559105842"><ele>131.0</ele><time>2026-05-03T11:10:15.042Z</time></trkpt><trkpt lat="40.03225311881942" lon="18.14710785238999"><ele>130.5</ele><time>2026-05-03T11:10:16.041Z</time></trkpt><trkpt lat="40.0323416735842" lon="18.147082853400946"><ele>130.0</ele><time>2026-05-03T11:10:18.041Z</time></trkpt><trkpt lat="40.032400553851716" lon="18.147141885768704"><ele>129.5</ele><time>2026-05-03T11:10:20.041Z</time></trkpt><trkpt lat="40.03243547697179" lon="18.147264770925986"><ele>129.0</ele><time>2026-05-03T11:10:22.041Z</time></trkpt><trkpt lat="40.03244126499511" lon="18.14737372244798"><ele>129.6</ele><time>2026-05-03T11:10:23.041Z</time></trkpt><trkpt lat="40.032453264912974" lon="18.147542927183462"><ele>130.2</ele><time>2026-05-03T11:10:24.041Z</time></trkpt><trkpt lat="40.032467014250464" lon="18.147691710033953"><ele>130.79999999999998</ele><time>2026-05-03T11:10:25.041Z</time></trkpt><trkpt lat="40.032487774039296" lon="18.14779570392459"><ele>131.4</ele><time>2026-05-03T11:10:26.041Z</time></trkpt><trkpt lat="40.03253002170995" lon="18.14791169434694"><ele>132.0</ele><time>2026-05-03T11:10:28.041Z</time></trkpt><trkpt lat="40.032638267296726" lon="18.147966469266066"><ele>132.6</ele><time>2026-05-03T11:10:30.041Z</time></trkpt><trkpt lat="40.032721509620835" lon="18.148011322936306"><ele>133.2</ele><time>2026-05-03T11:10:31.041Z</time></trkpt><trkpt lat="40.032814124704416" lon="18.148070426913435"><ele>133.8</ele><time>2026-05-03T11:10:32.041Z</time></trkpt><trkpt lat="40.0329208036975" lon="18.148132790227457"><ele>134.4</ele><time>2026-05-03T11:10:33.041Z</time></trkpt><trkpt lat="40.033004198439706" lon="18.148189297038833"><ele>135.0</ele><time>2026-05-03T11:10:34.041Z</time></trkpt><trkpt lat="40.03307935016102" lon="18.148242986256417"><ele>135.28571428571428</ele><time>2026-05-03T11:10:35.041Z</time></trkpt><trkpt lat="40.033149513214745" lon="18.14828957550646"><ele>135.57142857142856</ele><time>2026-05-03T11:10:36.041Z</time></trkpt><trkpt lat="40.033215596181186" lon="18.148333289845674"><ele>135.85714285714286</ele><time>2026-05-03T11:10:37.041Z</time></trkpt><trkpt lat="40.0332833795828" lon="18.14836496078598"><ele>136.14285714285714</ele><time>2026-05-03T11:10:38.041Z</time></trkpt><trkpt lat="40.033353978528055" lon="18.14840752867117"><ele>136.42857142857144</ele><time>2026-05-03T11:10:39.041Z</time></trkpt><trkpt lat="40.03341583404324" lon="18.148452512575982"><ele>136.71428571428572</ele><time>2026-05-03T11:10:40.041Z</time></trkpt><trkpt lat="40.03347143265639" lon="18.148495986015487"><ele>137.0</ele><time>2026-05-03T11:10:41.041Z</time></trkpt><trkpt lat="40.03352090059869" lon="18.148547477363472"><ele>137.6</ele><time>2026-05-03T11:10:42.041Z</time></trkpt><trkpt lat="40.03356500837706" lon="18.14861095628543"><ele>138.2</ele><time>2026-05-03T11:10:43.041Z</time></trkpt><trkpt lat="40.03363081364891" lon="18.14876503605385"><ele>138.8</ele><time>2026-05-03T11:10:45.041Z</time></trkpt><trkpt lat="40.03365207649843" lon="18.14885885132893"><ele>139.4</ele><time>2026-05-03T11:10:46.041Z</time></trkpt><trkpt lat="40.03367907219904" lon="18.14896649455765"><ele>140.0</ele><time>2026-05-03T11:10:47.041Z</time></trkpt><trkpt lat="40.03370276813618" lon="18.149115087620345"><ele>140.33333333333331</ele><time>2026-05-03T11:10:48.041Z</time></trkpt><trkpt lat="40.03373847495538" lon="18.149295452861917"><ele>140.66666666666666</ele><time>2026-05-03T11:10:49.041Z</time></trkpt><trkpt lat="40.03377023575388" lon="18.149523523753828"><ele>141.0</ele><time>2026-05-03T11:10:50.041Z</time></trkpt><trkpt lat="40.03381524337345" lon="18.149746675658637"><ele>141.0</ele><time>2026-05-03T11:10:51.041Z</time></trkpt><trkpt lat="40.03386222493621" lon="18.14993163741415"><ele>141.0</ele><time>2026-05-03T11:10:52.041Z</time></trkpt><trkpt lat="40.03390351565541" lon="18.15009639277619"><ele>141.0</ele><time>2026-05-03T11:10:53.041Z</time></trkpt><trkpt lat="40.03396344035938" lon="18.15026494587911"><ele>141.0</ele><time>2026-05-03T11:10:54.041Z</time></trkpt><trkpt lat="40.03403041186924" lon="18.150414446373993"><ele>141.0</ele><time>2026-05-03T11:10:55.041Z</time></trkpt><trkpt lat="40.034100291218145" lon="18.150543337716037"><ele>141.0</ele><time>2026-05-03T11:10:56.041Z</time></trkpt><trkpt lat="40.034183429405005" lon="18.150673190447872"><ele>141.0</ele><time>2026-05-03T11:10:57.041Z</time></trkpt><trkpt lat="40.03428867698002" lon="18.150801952326038"><ele>141.0</ele><time>2026-05-03T11:10:58.041Z</time></trkpt><trkpt lat="40.034405132111694" lon="18.15092742102027"><ele>141.0</ele><time>2026-05-03T11:10:59.041Z</time></trkpt><trkpt lat="40.03451152389395" lon="18.151044482655266"><ele>141.0</ele><time>2026-05-03T11:11:00.041Z</time></trkpt><trkpt lat="40.03458730315563" lon="18.151159744788508"><ele>141.0</ele><time>2026-05-03T11:11:01.041Z</time></trkpt><trkpt lat="40.0346493044095" lon="18.151265808309486"><ele>141.0</ele><time>2026-05-03T11:11:02.041Z</time></trkpt><trkpt lat="40.03468480809625" lon="18.15137630308514"><ele>141.0</ele><time>2026-05-03T11:11:03.041Z</time></trkpt><trkpt lat="40.03470452667964" lon="18.15149558547167"><ele>140.5</ele><time>2026-05-03T11:11:04.041Z</time></trkpt><trkpt lat="40.034724056430925" lon="18.151631818311955"><ele>140.0</ele><time>2026-05-03T11:11:05.041Z</time></trkpt><trkpt lat="40.034765619216124" lon="18.151786455754205"><ele>139.5</ele><time>2026-05-03T11:11:06.041Z</time></trkpt><trkpt lat="40.03482436455995" lon="18.15193346032149"><ele>139.0</ele><time>2026-05-03T11:11:07.041Z</time></trkpt><trkpt lat="40.0348851376601" lon="18.152094632102227"><ele>139.0</ele><time>2026-05-03T11:11:08.041Z</time></trkpt><trkpt lat="40.0349528240725" lon="18.152269283429465"><ele>139.0</ele><time>2026-05-03T11:11:09.041Z</time></trkpt><trkpt lat="40.035039079119024" lon="18.15247525412952"><ele>139.0</ele><time>2026-05-03T11:11:10.041Z</time></trkpt><trkpt lat="40.03512757289363" lon="18.152696368699594"><ele>140.0</ele><time>2026-05-03T11:11:11.041Z</time></trkpt><trkpt lat="40.035208838713466" lon="18.152919736710388"><ele>141.0</ele><time>2026-05-03T11:11:12.041Z</time></trkpt><trkpt lat="40.035292835800405" lon="18.153123205595953"><ele>142.0</ele><time>2026-05-03T11:11:13.041Z</time></trkpt><trkpt lat="40.03536838841913" lon="18.153313474215118"><ele>142.0</ele><time>2026-05-03T11:11:14.041Z</time></trkpt><trkpt lat="40.03543646561277" lon="18.153510406442297"><ele>142.0</ele><time>2026-05-03T11:11:15.041Z</time></trkpt><trkpt lat="40.03550857718143" lon="18.153706370862075"><ele>142.0</ele><time>2026-05-03T11:11:16.041Z</time></trkpt><trkpt lat="40.0355871214053" lon="18.153907668849804"><ele>141.66666666666669</ele><time>2026-05-03T11:11:17.041Z</time></trkpt><trkpt lat="40.035660728092246" lon="18.15410541405675"><ele>141.33333333333334</ele><time>2026-05-03T11:11:18.041Z</time></trkpt><trkpt lat="40.035734503800796" lon="18.154289966092698"><ele>141.0</ele><time>2026-05-03T11:11:19.041Z</time></trkpt><trkpt lat="40.03580128340855" lon="18.154469257449772"><ele>141.33333333333334</ele><time>2026-05-03T11:11:20.041Z</time></trkpt><trkpt lat="40.03586854739092" lon="18.15464325472458"><ele>141.66666666666669</ele><time>2026-05-03T11:11:21.041Z</time></trkpt><trkpt lat="40.03593959704193" lon="18.154819088418254"><ele>142.0</ele><time>2026-05-03T11:11:22.041Z</time></trkpt><trkpt lat="40.03600351057185" lon="18.154996215970428"><ele>142.0</ele><time>2026-05-03T11:11:23.041Z</time></trkpt><trkpt lat="40.036079176851516" lon="18.155185004421966"><ele>142.0</ele><time>2026-05-03T11:11:24.041Z</time></trkpt><trkpt lat="40.03616452424624" lon="18.15539715104092"><ele>142.0</ele><time>2026-05-03T11:11:25.041Z</time></trkpt><trkpt lat="40.03623933378233" lon="18.15560021628289"><ele>142.25</ele><time>2026-05-03T11:11:26.041Z</time></trkpt><trkpt lat="40.036295051721176" lon="18.155781318472688"><ele>142.5</ele><time>2026-05-03T11:11:27.041Z</time></trkpt><trkpt lat="40.03633898750166" lon="18.15591248226848"><ele>142.75</ele><time>2026-05-03T11:11:28.041Z</time></trkpt><trkpt lat="40.03643690340982" lon="18.156042521714888"><ele>143.0</ele><time>2026-05-03T11:11:29.041Z</time></trkpt><trkpt lat="40.03647795777818" lon="18.15615977128371"><ele>143.0</ele><time>2026-05-03T11:11:30.041Z</time></trkpt><trkpt lat="40.03651852366232" lon="18.156269500555144"><ele>143.0</ele><time>2026-05-03T11:11:31.041Z</time></trkpt><trkpt lat="40.036561854153696" lon="18.15638104851938"><ele>143.0</ele><time>2026-05-03T11:11:32.041Z</time></trkpt><trkpt lat="40.03659944872028" lon="18.156493414626585"><ele>143.0</ele><time>2026-05-03T11:11:33.041Z</time></trkpt><trkpt lat="40.03663041333731" lon="18.15657828409379"><ele>143.0</ele><time>2026-05-03T11:11:34.041Z</time></trkpt><trkpt lat="40.03666746245333" lon="18.156689971408024"><ele>143.0</ele><time>2026-05-03T11:11:36.041Z</time></trkpt><trkpt lat="40.03660690562823" lon="18.156792817970388"><ele>143.0</ele><time>2026-05-03T11:11:44.041Z</time></trkpt><trkpt lat="40.03652391037502" lon="18.15687139732879"><ele>143.0</ele><time>2026-05-03T11:11:45.041Z</time></trkpt><trkpt lat="40.03642170690128" lon="18.156958847287523"><ele>143.0</ele><time>2026-05-03T11:11:46.041Z</time></trkpt><trkpt lat="40.0363011348245" lon="18.15707399373803"><ele>143.0</ele><time>2026-05-03T11:11:47.041Z</time></trkpt><trkpt lat="40.03615445881618" lon="18.157214540143958"><ele>143.0</ele><time>2026-05-03T11:11:48.041Z</time></trkpt><trkpt lat="40.03599085316911" lon="18.157365772885168"><ele>143.0</ele><time>2026-05-03T11:11:49.041Z</time></trkpt><trkpt lat="40.03581657624489" lon="18.15752839074358"><ele>143.0</ele><time>2026-05-03T11:11:50.041Z</time></trkpt><trkpt lat="40.035636747879266" lon="18.157695464281215"><ele>142.0</ele><time>2026-05-03T11:11:51.041Z</time></trkpt><trkpt lat="40.035434199242815" lon="18.157898852169275"><ele>141.0</ele><time>2026-05-03T11:11:52.041Z</time></trkpt><trkpt lat="40.0352461523338" lon="18.158073846273762"><ele>141.5</ele><time>2026-05-03T11:11:53.041Z</time></trkpt><trkpt lat="40.03503321929273" lon="18.158276231760198"><ele>142.0</ele><time>2026-05-03T11:11:54.041Z</time></trkpt><trkpt lat="40.03482800036453" lon="18.158479361430818"><ele>142.0</ele><time>2026-05-03T11:11:55.041Z</time></trkpt><trkpt lat="40.034625343291914" lon="18.15867148037613"><ele>142.0</ele><time>2026-05-03T11:11:56.041Z</time></trkpt><trkpt lat="40.03442102862178" lon="18.158870806797793"><ele>142.0</ele><time>2026-05-03T11:11:57.041Z</time></trkpt><trkpt lat="40.03422890576632" lon="18.15905031343208"><ele>142.0</ele><time>2026-05-03T11:11:58.041Z</time></trkpt><trkpt lat="40.03405161215783" lon="18.159229538867738"><ele>142.0</ele><time>2026-05-03T11:11:59.041Z</time></trkpt><trkpt lat="40.033873631392076" lon="18.159409930653727"><ele>142.0</ele><time>2026-05-03T11:12:00.041Z</time></trkpt><trkpt lat="40.0336916725315" lon="18.159584786218396"><ele>142.0</ele><time>2026-05-03T11:12:01.041Z</time></trkpt><trkpt lat="40.033498599565775" lon="18.159771870898357"><ele>142.0</ele><time>2026-05-03T11:12:02.041Z</time></trkpt><trkpt lat="40.033316299925474" lon="18.159954420996666"><ele>143.5</ele><time>2026-05-03T11:12:03.041Z</time></trkpt><trkpt lat="40.03313160335427" lon="18.160139783118886"><ele>145.0</ele><time>2026-05-03T11:12:04.041Z</time></trkpt><trkpt lat="40.03294684847607" lon="18.160331051985406"><ele>145.0</ele><time>2026-05-03T11:12:05.041Z</time></trkpt><trkpt lat="40.03276631102811" lon="18.160526663592282"><ele>145.0</ele><time>2026-05-03T11:12:06.041Z</time></trkpt><trkpt lat="40.03258048995773" lon="18.160721706753563"><ele>144.5</ele><time>2026-05-03T11:12:07.041Z</time></trkpt><trkpt lat="40.032405091243476" lon="18.160915203640165"><ele>144.0</ele><time>2026-05-03T11:12:08.041Z</time></trkpt><trkpt lat="40.032225463695504" lon="18.16111883338733"><ele>144.0</ele><time>2026-05-03T11:12:09.041Z</time></trkpt><trkpt lat="40.03205537251023" lon="18.16131364260957"><ele>144.0</ele><time>2026-05-03T11:12:10.041Z</time></trkpt><trkpt lat="40.031879891642355" lon="18.161518377328786"><ele>144.0</ele><time>2026-05-03T11:12:11.042Z</time></trkpt><trkpt lat="40.0317002384023" lon="18.16171968970135"><ele>144.0</ele><time>2026-05-03T11:12:12.041Z</time></trkpt><trkpt lat="40.03153767760915" lon="18.161902477118634"><ele>144.0</ele><time>2026-05-03T11:12:13.041Z</time></trkpt><trkpt lat="40.03139293559139" lon="18.162074162471587"><ele>144.0</ele><time>2026-05-03T11:12:14.042Z</time></trkpt><trkpt lat="40.031253902673924" lon="18.162239535955376"><ele>144.0</ele><time>2026-05-03T11:12:15.041Z</time></trkpt><trkpt lat="40.031128656471886" lon="18.162389031458186"><ele>144.0</ele><time>2026-05-03T11:12:16.041Z</time></trkpt><trkpt lat="40.0310127392272" lon="18.162530549620723"><ele>144.0</ele><time>2026-05-03T11:12:17.041Z</time></trkpt><trkpt lat="40.03088843863817" lon="18.16266052015933"><ele>144.0</ele><time>2026-05-03T11:12:18.041Z</time></trkpt><trkpt lat="40.03078187069786" lon="18.1627729563415"><ele>144.0</ele><time>2026-05-03T11:12:19.041Z</time></trkpt><trkpt lat="40.03070146215922" lon="18.16284984853577"><ele>144.0</ele><time>2026-05-03T11:12:20.041Z</time></trkpt><trkpt lat="40.03063278363612" lon="18.16291558583403"><ele>144.0</ele><time>2026-05-03T11:12:21.041Z</time></trkpt><trkpt lat="40.03056785271531" lon="18.162964603585362"><ele>144.0</ele><time>2026-05-03T11:12:22.041Z</time></trkpt><trkpt lat="40.030494048556385" lon="18.162991789559992"><ele>144.0</ele><time>2026-05-03T11:12:25.041Z</time></trkpt><trkpt lat="40.03041804506868" lon="18.163013563753907"><ele>144.0</ele><time>2026-05-03T11:12:26.041Z</time></trkpt><trkpt lat="40.030323368462696" lon="18.163028612146615"><ele>144.0</ele><time>2026-05-03T11:12:27.041Z</time></trkpt><trkpt lat="40.03023524107133" lon="18.163080812879013"><ele>144.0</ele><time>2026-05-03T11:12:28.041Z</time></trkpt><trkpt lat="40.030177976026955" lon="18.16319737805185"><ele>144.0</ele><time>2026-05-03T11:12:29.041Z</time></trkpt><trkpt lat="40.0301301168294" lon="18.16332515378452"><ele>144.0</ele><time>2026-05-03T11:12:30.041Z</time></trkpt><trkpt lat="40.03010037218635" lon="18.16347259193933"><ele>144.0</ele><time>2026-05-03T11:12:31.041Z</time></trkpt><trkpt lat="40.03001810198963" lon="18.16362978328507"><ele>144.33333333333334</ele><time>2026-05-03T11:12:32.041Z</time></trkpt><trkpt lat="40.02989651108218" lon="18.163789310431614"><ele>144.66666666666669</ele><time>2026-05-03T11:12:33.041Z</time></trkpt><trkpt lat="40.029747283257606" lon="18.16396070994415"><ele>145.0</ele><time>2026-05-03T11:12:34.041Z</time></trkpt><trkpt lat="40.029575211416464" lon="18.164133890548325"><ele>146.0</ele><time>2026-05-03T11:12:35.041Z</time></trkpt><trkpt lat="40.02939155132015" lon="18.164333392623337"><ele>147.0</ele><time>2026-05-03T11:12:36.041Z</time></trkpt><trkpt lat="40.02920233655487" lon="18.16455094668382"><ele>146.5</ele><time>2026-05-03T11:12:37.041Z</time></trkpt><trkpt lat="40.02900096797713" lon="18.164780074599552"><ele>146.0</ele><time>2026-05-03T11:12:38.041Z</time></trkpt><trkpt lat="40.0287895787153" lon="18.165025312386774"><ele>146.0</ele><time>2026-05-03T11:12:39.041Z</time></trkpt><trkpt lat="40.02857407064957" lon="18.165269094581554"><ele>146.0</ele><time>2026-05-03T11:12:40.041Z</time></trkpt><trkpt lat="40.02835059072374" lon="18.165524092952435"><ele>145.5</ele><time>2026-05-03T11:12:41.041Z</time></trkpt><trkpt lat="40.028146725895645" lon="18.165759261091793"><ele>145.0</ele><time>2026-05-03T11:12:42.041Z</time></trkpt><trkpt lat="40.0279598065315" lon="18.165976580620956"><ele>145.0</ele><time>2026-05-03T11:12:43.041Z</time></trkpt><trkpt lat="40.02779604848653" lon="18.166160436981084"><ele>145.0</ele><time>2026-05-03T11:12:44.041Z</time></trkpt><trkpt lat="40.02765273178585" lon="18.166318449904733"><ele>145.0</ele><time>2026-05-03T11:12:45.041Z</time></trkpt><trkpt lat="40.02753008015104" lon="18.16645333253389"><ele>145.2</ele><time>2026-05-03T11:12:46.041Z</time></trkpt><trkpt lat="40.027433276534325" lon="18.16655958752949"><ele>145.4</ele><time>2026-05-03T11:12:47.041Z</time></trkpt><trkpt lat="40.02733954692024" lon="18.16663815444927"><ele>145.6</ele><time>2026-05-03T11:12:48.041Z</time></trkpt><trkpt lat="40.02723967156205" lon="18.166692007426057"><ele>145.8</ele><time>2026-05-03T11:12:49.041Z</time></trkpt><trkpt lat="40.027148963897005" lon="18.16675018648451"><ele>146.0</ele><time>2026-05-03T11:12:50.041Z</time></trkpt><trkpt lat="40.0270749552888" lon="18.166855341031763"><ele>146.0</ele><time>2026-05-03T11:12:51.041Z</time></trkpt><trkpt lat="40.0270104683436" lon="18.167000458449692"><ele>146.0</ele><time>2026-05-03T11:12:52.041Z</time></trkpt><trkpt lat="40.02693711549928" lon="18.167160402135394"><ele>146.0</ele><time>2026-05-03T11:12:53.041Z</time></trkpt><trkpt lat="40.02678907262056" lon="18.16732936863002"><ele>146.0</ele><time>2026-05-03T11:12:54.041Z</time></trkpt><trkpt lat="40.02662325978822" lon="18.16750702071956"><ele>146.0</ele><time>2026-05-03T11:12:55.041Z</time></trkpt><trkpt lat="40.02644625360001" lon="18.167698446113477"><ele>146.0</ele><time>2026-05-03T11:12:56.041Z</time></trkpt><trkpt lat="40.026262242534166" lon="18.16790536681518"><ele>146.0</ele><time>2026-05-03T11:12:57.041Z</time></trkpt><trkpt lat="40.02606666386591" lon="18.168121358045763"><ele>146.0</ele><time>2026-05-03T11:12:58.041Z</time></trkpt><trkpt lat="40.025874419350345" lon="18.168359602310982"><ele>146.0</ele><time>2026-05-03T11:12:59.041Z</time></trkpt><trkpt lat="40.025662370851535" lon="18.168589983836565"><ele>146.0</ele><time>2026-05-03T11:13:00.041Z</time></trkpt><trkpt lat="40.02545525382869" lon="18.168817003603678"><ele>147.5</ele><time>2026-05-03T11:13:01.041Z</time></trkpt><trkpt lat="40.02525700681781" lon="18.169048500247577"><ele>149.0</ele><time>2026-05-03T11:13:02.041Z</time></trkpt><trkpt lat="40.02505895331062" lon="18.16927070114937"><ele>146.5</ele><time>2026-05-03T11:13:03.041Z</time></trkpt><trkpt lat="40.02486470230098" lon="18.169491810535536"><ele>144.0</ele><time>2026-05-03T11:13:04.041Z</time></trkpt><trkpt lat="40.02468012722104" lon="18.169693940696845"><ele>145.66666666666666</ele><time>2026-05-03T11:13:05.041Z</time></trkpt><trkpt lat="40.024532895983874" lon="18.16986323214958"><ele>147.33333333333331</ele><time>2026-05-03T11:13:06.041Z</time></trkpt><trkpt lat="40.02441532109369" lon="18.170003470833187"><ele>149.0</ele><time>2026-05-03T11:13:07.041Z</time></trkpt><trkpt lat="40.024308174566976" lon="18.170124745436475"><ele>149.0</ele><time>2026-05-03T11:13:08.041Z</time></trkpt><trkpt lat="40.024207265028664" lon="18.170234294627555"><ele>149.0</ele><time>2026-05-03T11:13:09.041Z</time></trkpt><trkpt lat="40.02411189023435" lon="18.1703376267048"><ele>149.0</ele><time>2026-05-03T11:13:10.041Z</time></trkpt><trkpt lat="40.024000817950245" lon="18.17045835404152"><ele>149.0</ele><time>2026-05-03T11:13:11.041Z</time></trkpt><trkpt lat="40.02388503502467" lon="18.17058971433996"><ele>149.66666666666666</ele><time>2026-05-03T11:13:12.041Z</time></trkpt><trkpt lat="40.023765508188895" lon="18.170724529548473"><ele>150.33333333333334</ele><time>2026-05-03T11:13:13.041Z</time></trkpt><trkpt lat="40.0236413262768" lon="18.17086516559058"><ele>151.0</ele><time>2026-05-03T11:13:14.041Z</time></trkpt><trkpt lat="40.02350831021346" lon="18.171014563503793"><ele>151.0</ele><time>2026-05-03T11:13:15.041Z</time></trkpt><trkpt lat="40.02336328726041" lon="18.171174980233538"><ele>151.0</ele><time>2026-05-03T11:13:16.041Z</time></trkpt><trkpt lat="40.02321310215699" lon="18.171348741850583"><ele>151.0</ele><time>2026-05-03T11:13:17.041Z</time></trkpt><trkpt lat="40.023053351251164" lon="18.171526024827617"><ele>151.0</ele><time>2026-05-03T11:13:18.041Z</time></trkpt><trkpt lat="40.02289534432313" lon="18.171709129577046"><ele>151.0</ele><time>2026-05-03T11:13:19.041Z</time></trkpt><trkpt lat="40.02273381890891" lon="18.17189337059704"><ele>151.0</ele><time>2026-05-03T11:13:20.041Z</time></trkpt><trkpt lat="40.02256697720711" lon="18.17207769114641"><ele>151.0</ele><time>2026-05-03T11:13:21.041Z</time></trkpt><trkpt lat="40.02239872949645" lon="18.172265433153438"><ele>151.0</ele><time>2026-05-03T11:13:22.041Z</time></trkpt><trkpt lat="40.02223319159096" lon="18.172451745777924"><ele>151.0</ele><time>2026-05-03T11:13:23.041Z</time></trkpt><trkpt lat="40.022064196165104" lon="18.172633656943344"><ele>151.0</ele><time>2026-05-03T11:13:24.041Z</time></trkpt><trkpt lat="40.02190247911022" lon="18.172825637446817"><ele>151.0</ele><time>2026-05-03T11:13:25.041Z</time></trkpt><trkpt lat="40.021739269696575" lon="18.17301068778972"><ele>151.0</ele><time>2026-05-03T11:13:26.041Z</time></trkpt><trkpt lat="40.021570322726866" lon="18.173199659789923"><ele>152.0</ele><time>2026-05-03T11:13:27.041Z</time></trkpt><trkpt lat="40.02139967106995" lon="18.17338888084822"><ele>153.0</ele><time>2026-05-03T11:13:28.041Z</time></trkpt><trkpt lat="40.0212295957853" lon="18.173584993417837"><ele>153.0</ele><time>2026-05-03T11:13:29.041Z</time></trkpt><trkpt lat="40.02105902499948" lon="18.17377748210847"><ele>153.0</ele><time>2026-05-03T11:13:30.041Z</time></trkpt><trkpt lat="40.020888246890735" lon="18.173971528519743"><ele>151.5</ele><time>2026-05-03T11:13:31.041Z</time></trkpt><trkpt lat="40.02071538893375" lon="18.174167820076338"><ele>150.0</ele><time>2026-05-03T11:13:32.041Z</time></trkpt><trkpt lat="40.020540166136456" lon="18.174360171624347"><ele>150.0</ele><time>2026-05-03T11:13:33.041Z</time></trkpt><trkpt lat="40.02036428468555" lon="18.174547305185225"><ele>150.0</ele><time>2026-05-03T11:13:34.041Z</time></trkpt><trkpt lat="40.020184215636576" lon="18.174732997009688"><ele>149.66666666666666</ele><time>2026-05-03T11:13:35.041Z</time></trkpt><trkpt lat="40.02000663655177" lon="18.174907510346305"><ele>149.33333333333331</ele><time>2026-05-03T11:13:36.041Z</time></trkpt><trkpt lat="40.01984075450585" lon="18.17506428808106"><ele>149.0</ele><time>2026-05-03T11:13:37.041Z</time></trkpt><trkpt lat="40.0196793638175" lon="18.175206272182596"><ele>148.66666666666666</ele><time>2026-05-03T11:13:38.041Z</time></trkpt><trkpt lat="40.019522732400965" lon="18.17533838447405"><ele>148.33333333333334</ele><time>2026-05-03T11:13:39.041Z</time></trkpt><trkpt lat="40.01937357124107" lon="18.175456573953078"><ele>148.0</ele><time>2026-05-03T11:13:40.041Z</time></trkpt><trkpt lat="40.019239202385634" lon="18.175564425254016"><ele>148.0</ele><time>2026-05-03T11:13:41.041Z</time></trkpt><trkpt lat="40.01911628556885" lon="18.17566389598016"><ele>148.0</ele><time>2026-05-03T11:13:42.041Z</time></trkpt><trkpt lat="40.01900054741985" lon="18.175752523375643"><ele>148.0</ele><time>2026-05-03T11:13:43.041Z</time></trkpt><trkpt lat="40.018903677919724" lon="18.175815179156547"><ele>148.0</ele><time>2026-05-03T11:13:44.041Z</time></trkpt><trkpt lat="40.018831766289864" lon="18.17587052103468"><ele>148.0</ele><time>2026-05-03T11:13:45.041Z</time></trkpt><trkpt lat="40.01876558755767" lon="18.175917748122263"><ele>148.0</ele><time>2026-05-03T11:13:46.041Z</time></trkpt><trkpt lat="40.01868757842592" lon="18.17596562531164"><ele>148.0</ele><time>2026-05-03T11:13:47.041Z</time></trkpt><trkpt lat="40.018590287691296" lon="18.176030931507388"><ele>148.0</ele><time>2026-05-03T11:13:48.041Z</time></trkpt><trkpt lat="40.01847765573701" lon="18.1761150017902"><ele>148.0</ele><time>2026-05-03T11:13:49.041Z</time></trkpt><trkpt lat="40.018342206015305" lon="18.1762135238272"><ele>148.33333333333334</ele><time>2026-05-03T11:13:50.041Z</time></trkpt><trkpt lat="40.018189441444946" lon="18.176325316868795"><ele>148.66666666666666</ele><time>2026-05-03T11:13:51.041Z</time></trkpt><trkpt lat="40.01802435236354" lon="18.17644263350529"><ele>149.0</ele><time>2026-05-03T11:13:52.041Z</time></trkpt><trkpt lat="40.017846568915" lon="18.176573915993313"><ele>148.66666666666666</ele><time>2026-05-03T11:13:53.041Z</time></trkpt><trkpt lat="40.01765439830163" lon="18.17671645138771"><ele>148.33333333333334</ele><time>2026-05-03T11:13:54.041Z</time></trkpt><trkpt lat="40.01745564829068" lon="18.17686072608297"><ele>148.0</ele><time>2026-05-03T11:13:55.041Z</time></trkpt><trkpt lat="40.01724539889839" lon="18.177014548191455"><ele>148.0</ele><time>2026-05-03T11:13:56.041Z</time></trkpt><trkpt lat="40.01703150938418" lon="18.17716977514525"><ele>148.0</ele><time>2026-05-03T11:13:57.041Z</time></trkpt><trkpt lat="40.016820496426234" lon="18.177321561923712"><ele>145.5</ele><time>2026-05-03T11:13:58.041Z</time></trkpt><trkpt lat="40.01661313404172" lon="18.177478265661353"><ele>143.0</ele><time>2026-05-03T11:13:59.041Z</time></trkpt><trkpt lat="40.01640770593563" lon="18.177623893318803"><ele>143.0</ele><time>2026-05-03T11:14:00.041Z</time></trkpt><trkpt lat="40.016204435588655" lon="18.177764911858315"><ele>143.0</ele><time>2026-05-03T11:14:01.041Z</time></trkpt><trkpt lat="40.016011389773" lon="18.17790690467806"><ele>143.0</ele><time>2026-05-03T11:14:02.041Z</time></trkpt><trkpt lat="40.01583199000142" lon="18.17803596271972"><ele>143.0</ele><time>2026-05-03T11:14:03.041Z</time></trkpt><trkpt lat="40.01566762221538" lon="18.178157358244388"><ele>143.0</ele><time>2026-05-03T11:14:04.041Z</time></trkpt><trkpt lat="40.01550844330699" lon="18.178274276684242"><ele>142.66666666666666</ele><time>2026-05-03T11:14:05.041Z</time></trkpt><trkpt lat="40.01535059732543" lon="18.178391580196134"><ele>142.33333333333334</ele><time>2026-05-03T11:14:06.041Z</time></trkpt><trkpt lat="40.01519014072119" lon="18.178512393784555"><ele>142.0</ele><time>2026-05-03T11:14:07.041Z</time></trkpt><trkpt lat="40.01502420262527" lon="18.178645682663703"><ele>140.66666666666669</ele><time>2026-05-03T11:14:08.041Z</time></trkpt><trkpt lat="40.014860735955544" lon="18.1787700635143"><ele>139.33333333333334</ele><time>2026-05-03T11:14:09.041Z</time></trkpt><trkpt lat="40.01470595188403" lon="18.178883678772532"><ele>138.0</ele><time>2026-05-03T11:14:10.041Z</time></trkpt><trkpt lat="40.01455871238769" lon="18.178990959577803"><ele>138.33333333333334</ele><time>2026-05-03T11:14:11.041Z</time></trkpt><trkpt lat="40.01442332416272" lon="18.179096118088616"><ele>138.66666666666669</ele><time>2026-05-03T11:14:12.041Z</time></trkpt><trkpt lat="40.014293770142565" lon="18.17920131639741"><ele>139.0</ele><time>2026-05-03T11:14:13.041Z</time></trkpt><trkpt lat="40.01416628626899" lon="18.17930264041728"><ele>139.25</ele><time>2026-05-03T11:14:14.041Z</time></trkpt><trkpt lat="40.01404953926564" lon="18.179395440150586"><ele>139.5</ele><time>2026-05-03T11:14:15.04Z</time></trkpt><trkpt lat="40.013943068745775" lon="18.179486917649097"><ele>139.75</ele><time>2026-05-03T11:14:16.04Z</time></trkpt><trkpt lat="40.013838057844275" lon="18.179569729633464"><ele>140.0</ele><time>2026-05-03T11:14:17.04Z</time></trkpt><trkpt lat="40.013742872414404" lon="18.179643595511855"><ele>140.0</ele><time>2026-05-03T11:14:18.041Z</time></trkpt><trkpt lat="40.0136621649049" lon="18.179706977479274"><ele>140.0</ele><time>2026-05-03T11:14:19.041Z</time></trkpt><trkpt lat="40.01359593239609" lon="18.17975780174686"><ele>140.0</ele><time>2026-05-03T11:14:20.041Z</time></trkpt><trkpt lat="40.01353309680945" lon="18.17979483086488"><ele>140.0</ele><time>2026-05-03T11:14:21.041Z</time></trkpt><trkpt lat="40.01341632882555" lon="18.179804711177812"><ele>140.0</ele><time>2026-05-03T11:14:23.04Z</time></trkpt><trkpt lat="40.01334171531763" lon="18.179741394852982"><ele>140.0</ele><time>2026-05-03T11:14:25.041Z</time></trkpt><trkpt lat="40.01327032663594" lon="18.179597353941695"><ele>140.25</ele><time>2026-05-03T11:14:27.041Z</time></trkpt><trkpt lat="40.013226693805464" lon="18.179454762973275"><ele>140.5</ele><time>2026-05-03T11:14:28.041Z</time></trkpt><trkpt lat="40.01316632019411" lon="18.17928019241149"><ele>140.75</ele><time>2026-05-03T11:14:29.041Z</time></trkpt><trkpt lat="40.01311688213459" lon="18.179060010961308"><ele>141.0</ele><time>2026-05-03T11:14:30.041Z</time></trkpt><trkpt lat="40.01305178749027" lon="18.17881943242415"><ele>141.33333333333334</ele><time>2026-05-03T11:14:31.041Z</time></trkpt><trkpt lat="40.01298500116919" lon="18.17859236062337"><ele>141.66666666666669</ele><time>2026-05-03T11:14:32.041Z</time></trkpt><trkpt lat="40.01292487285343" lon="18.17838371407329"><ele>142.0</ele><time>2026-05-03T11:14:33.041Z</time></trkpt><trkpt lat="40.01287283657892" lon="18.17820059076446"><ele>142.25</ele><time>2026-05-03T11:14:34.041Z</time></trkpt><trkpt lat="40.01282171437008" lon="18.178028076314373"><ele>142.5</ele><time>2026-05-03T11:14:35.041Z</time></trkpt><trkpt lat="40.01276664972676" lon="18.177857138394963"><ele>142.75</ele><time>2026-05-03T11:14:36.041Z</time></trkpt><trkpt lat="40.01270238411055" lon="18.177686249071478"><ele>143.0</ele><time>2026-05-03T11:14:37.041Z</time></trkpt><trkpt lat="40.01264840525809" lon="18.17753169032311"><ele>143.0</ele><time>2026-05-03T11:14:38.041Z</time></trkpt><trkpt lat="40.012618858830905" lon="18.17741403510136"><ele>143.0</ele><time>2026-05-03T11:14:39.041Z</time></trkpt><trkpt lat="40.01259631652806" lon="18.177335458463176"><ele>143.0</ele><time>2026-05-03T11:14:40.041Z</time></trkpt><trkpt lat="40.01254356849385" lon="18.177257314585162"><ele>143.0</ele><time>2026-05-03T11:14:43.041Z</time></trkpt><trkpt lat="40.012447788302936" lon="18.177294618300092"><ele>143.0</ele><time>2026-05-03T11:14:45.041Z</time></trkpt><trkpt lat="40.01237223616075" lon="18.17733025557069"><ele>143.0</ele><time>2026-05-03T11:14:46.041Z</time></trkpt><trkpt lat="40.0122914893726" lon="18.177361542673072"><ele>144.0</ele><time>2026-05-03T11:14:47.041Z</time></trkpt><trkpt lat="40.012228010876306" lon="18.177385680780635"><ele>144.0</ele><time>2026-05-03T11:14:48.041Z</time></trkpt><trkpt lat="40.012115810630426" lon="18.177421844959753"><ele>144.0</ele><time>2026-05-03T11:14:50.041Z</time></trkpt><trkpt lat="40.01205061245673" lon="18.177455354843183"><ele>144.0</ele><time>2026-05-03T11:14:52.041Z</time></trkpt><trkpt lat="40.012097764600924" lon="18.177565448598006"><ele>144.0</ele><time>2026-05-03T11:14:54.041Z</time></trkpt><trkpt lat="40.01213756147255" lon="18.17764199277457"><ele>144.0</ele><time>2026-05-03T11:14:56.041Z</time></trkpt></trkseg></trk></gpx>